<?xml version="1.0" encoding="UTF-8" standalone="no" ?>
<gpx xmlns="http://www.topografix.com/GPX/1/1" xmlns:xsi="http://www.w3.org/2001/XMLSchema-instance" xsi:schemaLocation="http://www.topografix.com/GPX/1/1 http://www.topografix.com/GPX/1/1/gpx.xsd" version="1.1" creator="VisuGPX - https://www.visugpx.com">
  <metadata>
    <name>Riaillé : du lac de la Provostière au lac de Vioreau par la rigole alimentaire</name>
    <desc><![CDATA[Du lac de la Provostière au lac de Vioreau par la rigole alimentaire]]></desc>
  </metadata>
  <trk>
    <name><![CDATA[Riaillé]]></name>
    <trkseg>
      <trkpt lat="47.52558" lon="-1.34766">
        <ele>73</ele>
        <time>2016-12-04T08:12:27.428Z</time>
      </trkpt>
      <trkpt lat="47.52558" lon="-1.34766">
        <ele>73</ele>
        <time>2016-12-04T08:12:29.839Z</time>
      </trkpt>
      <trkpt lat="47.52558" lon="-1.34766">
        <ele>73</ele>
        <time>2016-12-04T08:12:49.452Z</time>
      </trkpt>
      <trkpt lat="47.52558" lon="-1.34766">
        <ele>73</ele>
        <time>2016-12-04T08:13:27.291Z</time>
      </trkpt>
      <trkpt lat="47.52549" lon="-1.34769">
        <ele>78</ele>
        <time>2016-12-04T08:13:27.291Z</time>
      </trkpt>
      <trkpt lat="47.52549" lon="-1.34783">
        <ele>79</ele>
        <time>2016-12-04T08:13:39.388Z</time>
      </trkpt>
      <trkpt lat="47.52552" lon="-1.34796">
        <ele>79</ele>
        <time>2016-12-04T08:13:44.399Z</time>
      </trkpt>
      <trkpt lat="47.52554" lon="-1.34809">
        <ele>79</ele>
        <time>2016-12-04T08:13:50.309Z</time>
      </trkpt>
      <trkpt lat="47.52554" lon="-1.34823">
        <ele>80</ele>
        <time>2016-12-04T08:13:57.614Z</time>
      </trkpt>
      <trkpt lat="47.52553" lon="-1.34838">
        <ele>80</ele>
        <time>2016-12-04T08:14:02.616Z</time>
      </trkpt>
      <trkpt lat="47.52552" lon="-1.34851">
        <ele>80</ele>
        <time>2016-12-04T08:14:08.409Z</time>
      </trkpt>
      <trkpt lat="47.52553" lon="-1.34866">
        <ele>80</ele>
        <time>2016-12-04T08:14:15.355Z</time>
      </trkpt>
      <trkpt lat="47.52555" lon="-1.34879">
        <ele>81</ele>
        <time>2016-12-04T08:14:22.565Z</time>
      </trkpt>
      <trkpt lat="47.52557" lon="-1.34896">
        <ele>81</ele>
        <time>2016-12-04T08:14:30.525Z</time>
      </trkpt>
      <trkpt lat="47.52558" lon="-1.34909">
        <ele>82</ele>
        <time>2016-12-04T08:14:37.306Z</time>
      </trkpt>
      <trkpt lat="47.52564" lon="-1.34947">
        <ele>83</ele>
        <time>2016-12-04T08:14:57.434Z</time>
      </trkpt>
      <trkpt lat="47.52582" lon="-1.34979">
        <ele>83</ele>
        <time>2016-12-04T08:15:15.555Z</time>
      </trkpt>
      <trkpt lat="47.52605" lon="-1.35002">
        <ele>82</ele>
        <time>2016-12-04T08:15:34.500Z</time>
      </trkpt>
      <trkpt lat="47.52623" lon="-1.35033">
        <ele>82</ele>
        <time>2016-12-04T08:15:55.676Z</time>
      </trkpt>
      <trkpt lat="47.52641" lon="-1.35066">
        <ele>83</ele>
        <time>2016-12-04T08:16:16.424Z</time>
      </trkpt>
      <trkpt lat="47.52657" lon="-1.35099">
        <ele>83</ele>
        <time>2016-12-04T08:16:35.599Z</time>
      </trkpt>
      <trkpt lat="47.52675" lon="-1.35129">
        <ele>83</ele>
        <time>2016-12-04T08:16:53.426Z</time>
      </trkpt>
      <trkpt lat="47.52692" lon="-1.35161">
        <ele>83</ele>
        <time>2016-12-04T08:17:11.466Z</time>
      </trkpt>
      <trkpt lat="47.52704" lon="-1.352">
        <ele>84</ele>
        <time>2016-12-04T08:17:30.298Z</time>
      </trkpt>
      <trkpt lat="47.52714" lon="-1.35239">
        <ele>85</ele>
        <time>2016-12-04T08:17:50.397Z</time>
      </trkpt>
      <trkpt lat="47.52725" lon="-1.35276">
        <ele>85</ele>
        <time>2016-12-04T08:18:09.553Z</time>
      </trkpt>
      <trkpt lat="47.52739" lon="-1.35313">
        <ele>84</ele>
        <time>2016-12-04T08:18:29.492Z</time>
      </trkpt>
      <trkpt lat="47.5274" lon="-1.35354">
        <ele>83</ele>
        <time>2016-12-04T08:18:48.206Z</time>
      </trkpt>
      <trkpt lat="47.52746" lon="-1.35389">
        <ele>81</ele>
        <time>2016-12-04T08:19:04.596Z</time>
      </trkpt>
      <trkpt lat="47.52763" lon="-1.3542">
        <ele>82</ele>
        <time>2016-12-04T08:19:22.408Z</time>
      </trkpt>
      <trkpt lat="47.52774" lon="-1.3543">
        <ele>82</ele>
        <time>2016-12-04T08:19:31.267Z</time>
      </trkpt>
      <trkpt lat="47.52794" lon="-1.35458">
        <ele>86</ele>
        <time>2016-12-04T08:19:52.568Z</time>
      </trkpt>
      <trkpt lat="47.52814" lon="-1.35489">
        <ele>89</ele>
        <time>2016-12-04T08:20:10.649Z</time>
      </trkpt>
      <trkpt lat="47.5284" lon="-1.35506">
        <ele>89</ele>
        <time>2016-12-04T08:20:29.385Z</time>
      </trkpt>
      <trkpt lat="47.52857" lon="-1.35513">
        <ele>87</ele>
        <time>2016-12-04T08:20:43.378Z</time>
      </trkpt>
      <trkpt lat="47.5288" lon="-1.35537">
        <ele>84</ele>
        <time>2016-12-04T08:21:01.219Z</time>
      </trkpt>
      <trkpt lat="47.52903" lon="-1.35559">
        <ele>81</ele>
        <time>2016-12-04T08:21:23.433Z</time>
      </trkpt>
      <trkpt lat="47.52927" lon="-1.35582">
        <ele>80</ele>
        <time>2016-12-04T08:21:41.254Z</time>
      </trkpt>
      <trkpt lat="47.5295" lon="-1.35608">
        <ele>81</ele>
        <time>2016-12-04T08:21:58.410Z</time>
      </trkpt>
      <trkpt lat="47.52967" lon="-1.35618">
        <ele>81</ele>
        <time>2016-12-04T08:22:13.294Z</time>
      </trkpt>
      <trkpt lat="47.52987" lon="-1.35632">
        <ele>81</ele>
        <time>2016-12-04T08:22:29.398Z</time>
      </trkpt>
      <trkpt lat="47.52996" lon="-1.35647">
        <ele>82</ele>
        <time>2016-12-04T08:22:38.227Z</time>
      </trkpt>
      <trkpt lat="47.53018" lon="-1.35674">
        <ele>88</ele>
        <time>2016-12-04T08:23:14.300Z</time>
      </trkpt>
      <trkpt lat="47.53042" lon="-1.35695">
        <ele>89</ele>
        <time>2016-12-04T08:23:32.273Z</time>
      </trkpt>
      <trkpt lat="47.53063" lon="-1.35715">
        <ele>88</ele>
        <time>2016-12-04T08:23:49.150Z</time>
      </trkpt>
      <trkpt lat="47.53088" lon="-1.35734">
        <ele>87</ele>
        <time>2016-12-04T08:24:08.395Z</time>
      </trkpt>
      <trkpt lat="47.53111" lon="-1.35758">
        <ele>88</ele>
        <time>2016-12-04T08:24:29.332Z</time>
      </trkpt>
      <trkpt lat="47.53124" lon="-1.35773">
        <ele>89</ele>
        <time>2016-12-04T08:24:41.160Z</time>
      </trkpt>
      <trkpt lat="47.53145" lon="-1.35798">
        <ele>90</ele>
        <time>2016-12-04T08:24:59.583Z</time>
      </trkpt>
      <trkpt lat="47.53166" lon="-1.35825">
        <ele>90</ele>
        <time>2016-12-04T08:25:19.961Z</time>
      </trkpt>
      <trkpt lat="47.5318" lon="-1.35838">
        <ele>90</ele>
        <time>2016-12-04T08:25:30.391Z</time>
      </trkpt>
      <trkpt lat="47.53198" lon="-1.35868">
        <ele>91</ele>
        <time>2016-12-04T08:25:48.164Z</time>
      </trkpt>
      <trkpt lat="47.53216" lon="-1.35901">
        <ele>93</ele>
        <time>2016-12-04T08:26:08.183Z</time>
      </trkpt>
      <trkpt lat="47.53224" lon="-1.35929">
        <ele>95</ele>
        <time>2016-12-04T08:26:23.311Z</time>
      </trkpt>
      <trkpt lat="47.5321" lon="-1.35964">
        <ele>96</ele>
        <time>2016-12-04T08:26:45.271Z</time>
      </trkpt>
      <trkpt lat="47.53199" lon="-1.36002">
        <ele>97</ele>
        <time>2016-12-04T08:27:07.256Z</time>
      </trkpt>
      <trkpt lat="47.53187" lon="-1.3604">
        <ele>100</ele>
        <time>2016-12-04T08:27:27.578Z</time>
      </trkpt>
      <trkpt lat="47.53174" lon="-1.36077">
        <ele>101</ele>
        <time>2016-12-04T08:27:46.611Z</time>
      </trkpt>
      <trkpt lat="47.53163" lon="-1.36114">
        <ele>101</ele>
        <time>2016-12-04T08:28:06.420Z</time>
      </trkpt>
      <trkpt lat="47.53149" lon="-1.3615">
        <ele>100</ele>
        <time>2016-12-04T08:28:23.399Z</time>
      </trkpt>
      <trkpt lat="47.53136" lon="-1.36187">
        <ele>100</ele>
        <time>2016-12-04T08:28:41.765Z</time>
      </trkpt>
      <trkpt lat="47.53123" lon="-1.36224">
        <ele>100</ele>
        <time>2016-12-04T08:28:58.298Z</time>
      </trkpt>
      <trkpt lat="47.5311" lon="-1.36261">
        <ele>101</ele>
        <time>2016-12-04T08:29:17.429Z</time>
      </trkpt>
      <trkpt lat="47.53102" lon="-1.36277">
        <ele>101</ele>
        <time>2016-12-04T08:29:25.412Z</time>
      </trkpt>
      <trkpt lat="47.53087" lon="-1.36314">
        <ele>101</ele>
        <time>2016-12-04T08:29:44.571Z</time>
      </trkpt>
      <trkpt lat="47.53082" lon="-1.3633">
        <ele>101</ele>
        <time>2016-12-04T08:30:03.539Z</time>
      </trkpt>
      <trkpt lat="47.53082" lon="-1.3633">
        <ele>101</ele>
        <time>2016-12-04T08:30:04.397Z</time>
      </trkpt>
      <trkpt lat="47.53082" lon="-1.3633">
        <ele>101</ele>
        <time>2016-12-04T08:30:09.181Z</time>
      </trkpt>
      <trkpt lat="47.53077" lon="-1.36341">
        <ele>101</ele>
        <time>2016-12-04T08:30:17.499Z</time>
      </trkpt>
      <trkpt lat="47.53071" lon="-1.36352">
        <ele>101</ele>
        <time>2016-12-04T08:30:25.550Z</time>
      </trkpt>
      <trkpt lat="47.53066" lon="-1.36363">
        <ele>101</ele>
        <time>2016-12-04T08:30:39.434Z</time>
      </trkpt>
      <trkpt lat="47.53059" lon="-1.36379">
        <ele>101</ele>
        <time>2016-12-04T08:30:48.217Z</time>
      </trkpt>
      <trkpt lat="47.53054" lon="-1.36391">
        <ele>101</ele>
        <time>2016-12-04T08:30:55.382Z</time>
      </trkpt>
      <trkpt lat="47.53048" lon="-1.36402">
        <ele>101</ele>
        <time>2016-12-04T08:31:02.458Z</time>
      </trkpt>
      <trkpt lat="47.53042" lon="-1.36415">
        <ele>101</ele>
        <time>2016-12-04T08:31:11.354Z</time>
      </trkpt>
      <trkpt lat="47.53036" lon="-1.36433">
        <ele>100</ele>
        <time>2016-12-04T08:31:20.393Z</time>
      </trkpt>
      <trkpt lat="47.53031" lon="-1.36445">
        <ele>100</ele>
        <time>2016-12-04T08:31:27.285Z</time>
      </trkpt>
      <trkpt lat="47.53025" lon="-1.36456">
        <ele>100</ele>
        <time>2016-12-04T08:31:35.224Z</time>
      </trkpt>
      <trkpt lat="47.53009" lon="-1.36488">
        <ele>100</ele>
        <time>2016-12-04T08:31:53.175Z</time>
      </trkpt>
      <trkpt lat="47.52994" lon="-1.36523">
        <ele>101</ele>
        <time>2016-12-04T08:32:14.484Z</time>
      </trkpt>
      <trkpt lat="47.52991" lon="-1.36536">
        <ele>101</ele>
        <time>2016-12-04T08:32:27.471Z</time>
      </trkpt>
      <trkpt lat="47.53006" lon="-1.36568">
        <ele>101</ele>
        <time>2016-12-04T08:34:07.516Z</time>
      </trkpt>
      <trkpt lat="47.53008" lon="-1.36612">
        <ele>99</ele>
        <time>2016-12-04T08:34:28.465Z</time>
      </trkpt>
      <trkpt lat="47.53014" lon="-1.36652">
        <ele>97</ele>
        <time>2016-12-04T08:34:47.368Z</time>
      </trkpt>
      <trkpt lat="47.53019" lon="-1.36695">
        <ele>96</ele>
        <time>2016-12-04T08:35:06.223Z</time>
      </trkpt>
      <trkpt lat="47.5302" lon="-1.36712">
        <ele>96</ele>
        <time>2016-12-04T08:35:15.356Z</time>
      </trkpt>
      <trkpt lat="47.53027" lon="-1.36751">
        <ele>95</ele>
        <time>2016-12-04T08:35:32.685Z</time>
      </trkpt>
      <trkpt lat="47.5303" lon="-1.36793">
        <ele>95</ele>
        <time>2016-12-04T08:35:52.576Z</time>
      </trkpt>
      <trkpt lat="47.53034" lon="-1.36834">
        <ele>96</ele>
        <time>2016-12-04T08:36:10.239Z</time>
      </trkpt>
      <trkpt lat="47.53039" lon="-1.36848">
        <ele>97</ele>
        <time>2016-12-04T08:36:19.591Z</time>
      </trkpt>
      <trkpt lat="47.53039" lon="-1.36848">
        <ele>97</ele>
        <time>2016-12-04T08:36:34.177Z</time>
      </trkpt>
      <trkpt lat="47.53039" lon="-1.36848">
        <ele>97</ele>
        <time>2016-12-04T08:36:52.521Z</time>
      </trkpt>
      <trkpt lat="47.53036" lon="-1.36861">
        <ele>98</ele>
        <time>2016-12-04T08:36:57.317Z</time>
      </trkpt>
      <trkpt lat="47.53036" lon="-1.36874">
        <ele>98</ele>
        <time>2016-12-04T08:37:04.343Z</time>
      </trkpt>
      <trkpt lat="47.5304" lon="-1.36886">
        <ele>98</ele>
        <time>2016-12-04T08:37:12.272Z</time>
      </trkpt>
      <trkpt lat="47.53044" lon="-1.36898">
        <ele>98</ele>
        <time>2016-12-04T08:37:19.611Z</time>
      </trkpt>
      <trkpt lat="47.53049" lon="-1.36912">
        <ele>98</ele>
        <time>2016-12-04T08:37:25.433Z</time>
      </trkpt>
      <trkpt lat="47.53054" lon="-1.36923">
        <ele>98</ele>
        <time>2016-12-04T08:37:31.574Z</time>
      </trkpt>
      <trkpt lat="47.53058" lon="-1.36935">
        <ele>98</ele>
        <time>2016-12-04T08:37:37.720Z</time>
      </trkpt>
      <trkpt lat="47.53064" lon="-1.36947">
        <ele>97</ele>
        <time>2016-12-04T08:37:44.298Z</time>
      </trkpt>
      <trkpt lat="47.53069" lon="-1.36963">
        <ele>97</ele>
        <time>2016-12-04T08:37:52.586Z</time>
      </trkpt>
      <trkpt lat="47.53073" lon="-1.36976">
        <ele>97</ele>
        <time>2016-12-04T08:37:59.466Z</time>
      </trkpt>
      <trkpt lat="47.53087" lon="-1.37015">
        <ele>96</ele>
        <time>2016-12-04T08:38:19.345Z</time>
      </trkpt>
      <trkpt lat="47.53097" lon="-1.37048">
        <ele>96</ele>
        <time>2016-12-04T08:38:35.390Z</time>
      </trkpt>
      <trkpt lat="47.53102" lon="-1.37089">
        <ele>96</ele>
        <time>2016-12-04T08:38:51.387Z</time>
      </trkpt>
      <trkpt lat="47.53109" lon="-1.37131">
        <ele>96</ele>
        <time>2016-12-04T08:39:10.337Z</time>
      </trkpt>
      <trkpt lat="47.53108" lon="-1.37173">
        <ele>97</ele>
        <time>2016-12-04T08:39:28.550Z</time>
      </trkpt>
      <trkpt lat="47.53111" lon="-1.37214">
        <ele>97</ele>
        <time>2016-12-04T08:39:46.488Z</time>
      </trkpt>
      <trkpt lat="47.53111" lon="-1.37255">
        <ele>98</ele>
        <time>2016-12-04T08:40:06.431Z</time>
      </trkpt>
      <trkpt lat="47.53112" lon="-1.37298">
        <ele>98</ele>
        <time>2016-12-04T08:40:24.553Z</time>
      </trkpt>
      <trkpt lat="47.53113" lon="-1.37341">
        <ele>98</ele>
        <time>2016-12-04T08:40:45.693Z</time>
      </trkpt>
      <trkpt lat="47.53113" lon="-1.37382">
        <ele>97</ele>
        <time>2016-12-04T08:41:03.385Z</time>
      </trkpt>
      <trkpt lat="47.53113" lon="-1.37422">
        <ele>97</ele>
        <time>2016-12-04T08:41:20.733Z</time>
      </trkpt>
      <trkpt lat="47.53113" lon="-1.37463">
        <ele>97</ele>
        <time>2016-12-04T08:41:38.456Z</time>
      </trkpt>
      <trkpt lat="47.53112" lon="-1.37504">
        <ele>96</ele>
        <time>2016-12-04T08:41:56.432Z</time>
      </trkpt>
      <trkpt lat="47.53112" lon="-1.37544">
        <ele>96</ele>
        <time>2016-12-04T08:42:13.589Z</time>
      </trkpt>
      <trkpt lat="47.53111" lon="-1.37584">
        <ele>96</ele>
        <time>2016-12-04T08:42:31.630Z</time>
      </trkpt>
      <trkpt lat="47.53111" lon="-1.37624">
        <ele>96</ele>
        <time>2016-12-04T08:42:50.354Z</time>
      </trkpt>
      <trkpt lat="47.53108" lon="-1.37666">
        <ele>94</ele>
        <time>2016-12-04T08:43:08.228Z</time>
      </trkpt>
      <trkpt lat="47.53108" lon="-1.37707">
        <ele>92</ele>
        <time>2016-12-04T08:43:26.373Z</time>
      </trkpt>
      <trkpt lat="47.53106" lon="-1.37748">
        <ele>90</ele>
        <time>2016-12-04T08:43:46.510Z</time>
      </trkpt>
      <trkpt lat="47.53104" lon="-1.37788">
        <ele>89</ele>
        <time>2016-12-04T08:44:07.407Z</time>
      </trkpt>
      <trkpt lat="47.53101" lon="-1.3783">
        <ele>88</ele>
        <time>2016-12-04T08:44:26.548Z</time>
      </trkpt>
      <trkpt lat="47.53096" lon="-1.37871">
        <ele>87</ele>
        <time>2016-12-04T08:44:44.528Z</time>
      </trkpt>
      <trkpt lat="47.53094" lon="-1.37912">
        <ele>88</ele>
        <time>2016-12-04T08:45:03.241Z</time>
      </trkpt>
      <trkpt lat="47.53091" lon="-1.37952">
        <ele>89</ele>
        <time>2016-12-04T08:45:21.695Z</time>
      </trkpt>
      <trkpt lat="47.53092" lon="-1.37976">
        <ele>89</ele>
        <time>2016-12-04T08:45:33.694Z</time>
      </trkpt>
      <trkpt lat="47.53099" lon="-1.37993">
        <ele>89</ele>
        <time>2016-12-04T08:45:42.419Z</time>
      </trkpt>
      <trkpt lat="47.53118" lon="-1.38024">
        <ele>86</ele>
        <time>2016-12-04T08:46:00.549Z</time>
      </trkpt>
      <trkpt lat="47.53137" lon="-1.38058">
        <ele>83</ele>
        <time>2016-12-04T08:46:20.534Z</time>
      </trkpt>
      <trkpt lat="47.53154" lon="-1.38084">
        <ele>81</ele>
        <time>2016-12-04T08:46:37.478Z</time>
      </trkpt>
      <trkpt lat="47.53176" lon="-1.38108">
        <ele>80</ele>
        <time>2016-12-04T08:46:55.447Z</time>
      </trkpt>
      <trkpt lat="47.53197" lon="-1.38134">
        <ele>79</ele>
        <time>2016-12-04T08:47:16.433Z</time>
      </trkpt>
      <trkpt lat="47.53212" lon="-1.38161">
        <ele>77</ele>
        <time>2016-12-04T08:47:32.325Z</time>
      </trkpt>
      <trkpt lat="47.53224" lon="-1.38197">
        <ele>77</ele>
        <time>2016-12-04T08:47:49.430Z</time>
      </trkpt>
      <trkpt lat="47.53229" lon="-1.38224">
        <ele>77</ele>
        <time>2016-12-04T08:48:04.384Z</time>
      </trkpt>
      <trkpt lat="47.53229" lon="-1.38266">
        <ele>81</ele>
        <time>2016-12-04T08:48:26.491Z</time>
      </trkpt>
      <trkpt lat="47.53231" lon="-1.38308">
        <ele>84</ele>
        <time>2016-12-04T08:48:45.608Z</time>
      </trkpt>
      <trkpt lat="47.53232" lon="-1.38351">
        <ele>87</ele>
        <time>2016-12-04T08:49:06.512Z</time>
      </trkpt>
      <trkpt lat="47.53231" lon="-1.38392">
        <ele>87</ele>
        <time>2016-12-04T08:49:25.461Z</time>
      </trkpt>
      <trkpt lat="47.53231" lon="-1.38432">
        <ele>88</ele>
        <time>2016-12-04T08:49:44.518Z</time>
      </trkpt>
      <trkpt lat="47.53229" lon="-1.38473">
        <ele>89</ele>
        <time>2016-12-04T08:50:03.430Z</time>
      </trkpt>
      <trkpt lat="47.53226" lon="-1.38499">
        <ele>89</ele>
        <time>2016-12-04T08:50:15.285Z</time>
      </trkpt>
      <trkpt lat="47.53228" lon="-1.38541">
        <ele>90</ele>
        <time>2016-12-04T08:50:34.436Z</time>
      </trkpt>
      <trkpt lat="47.53229" lon="-1.38583">
        <ele>89</ele>
        <time>2016-12-04T08:50:54.533Z</time>
      </trkpt>
      <trkpt lat="47.53232" lon="-1.38624">
        <ele>90</ele>
        <time>2016-12-04T08:51:14.338Z</time>
      </trkpt>
      <trkpt lat="47.53232" lon="-1.38624">
        <ele>90</ele>
        <time>2016-12-04T08:51:25.713Z</time>
      </trkpt>
      <trkpt lat="47.53232" lon="-1.38624">
        <ele>90</ele>
        <time>2016-12-04T08:52:04.652Z</time>
      </trkpt>
      <trkpt lat="47.53221" lon="-1.38626">
        <ele>91</ele>
        <time>2016-12-04T08:52:32.690Z</time>
      </trkpt>
      <trkpt lat="47.53211" lon="-1.38623">
        <ele>90</ele>
        <time>2016-12-04T08:52:40.693Z</time>
      </trkpt>
      <trkpt lat="47.53201" lon="-1.38619">
        <ele>91</ele>
        <time>2016-12-04T08:52:48.405Z</time>
      </trkpt>
      <trkpt lat="47.53192" lon="-1.38616">
        <ele>91</ele>
        <time>2016-12-04T08:52:56.601Z</time>
      </trkpt>
      <trkpt lat="47.53183" lon="-1.38612">
        <ele>91</ele>
        <time>2016-12-04T08:53:02.405Z</time>
      </trkpt>
      <trkpt lat="47.53174" lon="-1.38608">
        <ele>92</ele>
        <time>2016-12-04T08:53:09.356Z</time>
      </trkpt>
      <trkpt lat="47.53165" lon="-1.38606">
        <ele>92</ele>
        <time>2016-12-04T08:53:16.356Z</time>
      </trkpt>
      <trkpt lat="47.53155" lon="-1.38604">
        <ele>93</ele>
        <time>2016-12-04T08:53:23.535Z</time>
      </trkpt>
      <trkpt lat="47.53145" lon="-1.38601">
        <ele>93</ele>
        <time>2016-12-04T08:53:31.301Z</time>
      </trkpt>
      <trkpt lat="47.53136" lon="-1.38598">
        <ele>94</ele>
        <time>2016-12-04T08:53:37.257Z</time>
      </trkpt>
      <trkpt lat="47.5311" lon="-1.38589">
        <ele>94</ele>
        <time>2016-12-04T08:53:55.236Z</time>
      </trkpt>
      <trkpt lat="47.53083" lon="-1.38578">
        <ele>94</ele>
        <time>2016-12-04T08:54:16.450Z</time>
      </trkpt>
      <trkpt lat="47.53056" lon="-1.38566">
        <ele>95</ele>
        <time>2016-12-04T08:54:35.560Z</time>
      </trkpt>
      <trkpt lat="47.53029" lon="-1.38557">
        <ele>96</ele>
        <time>2016-12-04T08:54:56.310Z</time>
      </trkpt>
      <trkpt lat="47.5302" lon="-1.38555">
        <ele>96</ele>
        <time>2016-12-04T08:55:02.396Z</time>
      </trkpt>
      <trkpt lat="47.53011" lon="-1.3855">
        <ele>96</ele>
        <time>2016-12-04T08:55:09.379Z</time>
      </trkpt>
      <trkpt lat="47.52997" lon="-1.38545">
        <ele>96</ele>
        <time>2016-12-04T08:55:19.480Z</time>
      </trkpt>
      <trkpt lat="47.52994" lon="-1.38561">
        <ele>96</ele>
        <time>2016-12-04T08:55:28.625Z</time>
      </trkpt>
      <trkpt lat="47.52997" lon="-1.38599">
        <ele>96</ele>
        <time>2016-12-04T08:55:46.753Z</time>
      </trkpt>
      <trkpt lat="47.52983" lon="-1.38607">
        <ele>97</ele>
        <time>2016-12-04T08:56:07.414Z</time>
      </trkpt>
      <trkpt lat="47.52969" lon="-1.38608">
        <ele>98</ele>
        <time>2016-12-04T08:56:18.693Z</time>
      </trkpt>
      <trkpt lat="47.52951" lon="-1.38621">
        <ele>100</ele>
        <time>2016-12-04T08:56:35.356Z</time>
      </trkpt>
      <trkpt lat="47.52941" lon="-1.38626">
        <ele>101</ele>
        <time>2016-12-04T08:56:41.450Z</time>
      </trkpt>
      <trkpt lat="47.52926" lon="-1.3864">
        <ele>102</ele>
        <time>2016-12-04T08:56:55.458Z</time>
      </trkpt>
      <trkpt lat="47.52913" lon="-1.38649">
        <ele>102</ele>
        <time>2016-12-04T08:57:04.450Z</time>
      </trkpt>
      <trkpt lat="47.52892" lon="-1.38676">
        <ele>103</ele>
        <time>2016-12-04T08:57:22.777Z</time>
      </trkpt>
      <trkpt lat="47.52878" lon="-1.38695">
        <ele>102</ele>
        <time>2016-12-04T08:57:36.449Z</time>
      </trkpt>
      <trkpt lat="47.52864" lon="-1.38719">
        <ele>102</ele>
        <time>2016-12-04T08:57:50.325Z</time>
      </trkpt>
      <trkpt lat="47.52864" lon="-1.38733">
        <ele>102</ele>
        <time>2016-12-04T08:57:56.244Z</time>
      </trkpt>
      <trkpt lat="47.5287" lon="-1.38757">
        <ele>102</ele>
        <time>2016-12-04T08:58:10.275Z</time>
      </trkpt>
      <trkpt lat="47.52871" lon="-1.38771">
        <ele>102</ele>
        <time>2016-12-04T08:58:18.430Z</time>
      </trkpt>
      <trkpt lat="47.5288" lon="-1.38781">
        <ele>102</ele>
        <time>2016-12-04T08:58:30.569Z</time>
      </trkpt>
      <trkpt lat="47.52893" lon="-1.38817">
        <ele>101</ele>
        <time>2016-12-04T08:58:50.369Z</time>
      </trkpt>
      <trkpt lat="47.52906" lon="-1.38845">
        <ele>100</ele>
        <time>2016-12-04T08:59:06.248Z</time>
      </trkpt>
      <trkpt lat="47.52916" lon="-1.38883">
        <ele>97</ele>
        <time>2016-12-04T08:59:24.556Z</time>
      </trkpt>
      <trkpt lat="47.52927" lon="-1.3892">
        <ele>95</ele>
        <time>2016-12-04T08:59:45.607Z</time>
      </trkpt>
      <trkpt lat="47.5294" lon="-1.38957">
        <ele>95</ele>
        <time>2016-12-04T09:00:06.634Z</time>
      </trkpt>
      <trkpt lat="47.52944" lon="-1.38993">
        <ele>95</ele>
        <time>2016-12-04T09:00:26.272Z</time>
      </trkpt>
      <trkpt lat="47.52949" lon="-1.39036">
        <ele>96</ele>
        <time>2016-12-04T09:00:49.398Z</time>
      </trkpt>
      <trkpt lat="47.52954" lon="-1.39066">
        <ele>97</ele>
        <time>2016-12-04T09:01:04.453Z</time>
      </trkpt>
      <trkpt lat="47.52948" lon="-1.39094">
        <ele>98</ele>
        <time>2016-12-04T09:01:18.750Z</time>
      </trkpt>
      <trkpt lat="47.5295" lon="-1.39115">
        <ele>98</ele>
        <time>2016-12-04T09:01:28.334Z</time>
      </trkpt>
      <trkpt lat="47.52948" lon="-1.39128">
        <ele>98</ele>
        <time>2016-12-04T09:01:34.589Z</time>
      </trkpt>
      <trkpt lat="47.52951" lon="-1.3917">
        <ele>100</ele>
        <time>2016-12-04T09:01:54.496Z</time>
      </trkpt>
      <trkpt lat="47.52948" lon="-1.39213">
        <ele>102</ele>
        <time>2016-12-04T09:02:16.589Z</time>
      </trkpt>
      <trkpt lat="47.52942" lon="-1.39253">
        <ele>104</ele>
        <time>2016-12-04T09:02:35.306Z</time>
      </trkpt>
      <trkpt lat="47.52943" lon="-1.39295">
        <ele>105</ele>
        <time>2016-12-04T09:02:54.468Z</time>
      </trkpt>
      <trkpt lat="47.52942" lon="-1.3931">
        <ele>105</ele>
        <time>2016-12-04T09:03:01.552Z</time>
      </trkpt>
      <trkpt lat="47.52936" lon="-1.3935">
        <ele>103</ele>
        <time>2016-12-04T09:03:21.670Z</time>
      </trkpt>
      <trkpt lat="47.5293" lon="-1.39378">
        <ele>101</ele>
        <time>2016-12-04T09:03:35.810Z</time>
      </trkpt>
      <trkpt lat="47.52941" lon="-1.39384">
        <ele>100</ele>
        <time>2016-12-04T09:03:44.512Z</time>
      </trkpt>
      <trkpt lat="47.5295" lon="-1.39387">
        <ele>99</ele>
        <time>2016-12-04T09:03:51.173Z</time>
      </trkpt>
      <trkpt lat="47.52961" lon="-1.39417">
        <ele>98</ele>
        <time>2016-12-04T09:04:09.300Z</time>
      </trkpt>
      <trkpt lat="47.52981" lon="-1.39445">
        <ele>98</ele>
        <time>2016-12-04T09:04:31.255Z</time>
      </trkpt>
      <trkpt lat="47.52989" lon="-1.39455">
        <ele>98</ele>
        <time>2016-12-04T09:04:37.407Z</time>
      </trkpt>
      <trkpt lat="47.53007" lon="-1.39485">
        <ele>100</ele>
        <time>2016-12-04T09:05:03.193Z</time>
      </trkpt>
      <trkpt lat="47.53019" lon="-1.39506">
        <ele>100</ele>
        <time>2016-12-04T09:05:17.355Z</time>
      </trkpt>
      <trkpt lat="47.53039" lon="-1.39534">
        <ele>100</ele>
        <time>2016-12-04T09:05:33.375Z</time>
      </trkpt>
      <trkpt lat="47.53056" lon="-1.39557">
        <ele>100</ele>
        <time>2016-12-04T09:05:50.436Z</time>
      </trkpt>
      <trkpt lat="47.53055" lon="-1.39574">
        <ele>100</ele>
        <time>2016-12-04T09:05:57.475Z</time>
      </trkpt>
      <trkpt lat="47.53047" lon="-1.39591">
        <ele>101</ele>
        <time>2016-12-04T09:06:07.538Z</time>
      </trkpt>
      <trkpt lat="47.53039" lon="-1.39603">
        <ele>102</ele>
        <time>2016-12-04T09:06:17.178Z</time>
      </trkpt>
      <trkpt lat="47.53022" lon="-1.39636">
        <ele>104</ele>
        <time>2016-12-04T09:06:39.267Z</time>
      </trkpt>
      <trkpt lat="47.53014" lon="-1.39645">
        <ele>104</ele>
        <time>2016-12-04T09:06:48.374Z</time>
      </trkpt>
      <trkpt lat="47.52999" lon="-1.39638">
        <ele>104</ele>
        <time>2016-12-04T09:06:58.473Z</time>
      </trkpt>
      <trkpt lat="47.52999" lon="-1.39638">
        <ele>104</ele>
        <time>2016-12-04T09:07:11.404Z</time>
      </trkpt>
      <trkpt lat="47.52999" lon="-1.39638">
        <ele>104</ele>
        <time>2016-12-04T09:08:26.574Z</time>
      </trkpt>
      <trkpt lat="47.53007" lon="-1.39647">
        <ele>107</ele>
        <time>2016-12-04T09:08:33.440Z</time>
      </trkpt>
      <trkpt lat="47.53003" lon="-1.3966">
        <ele>107</ele>
        <time>2016-12-04T09:08:38.680Z</time>
      </trkpt>
      <trkpt lat="47.52994" lon="-1.3967">
        <ele>107</ele>
        <time>2016-12-04T09:08:42.617Z</time>
      </trkpt>
      <trkpt lat="47.52983" lon="-1.39678">
        <ele>107</ele>
        <time>2016-12-04T09:08:46.295Z</time>
      </trkpt>
      <trkpt lat="47.52974" lon="-1.39693">
        <ele>107</ele>
        <time>2016-12-04T09:08:51.421Z</time>
      </trkpt>
      <trkpt lat="47.52968" lon="-1.39705">
        <ele>106</ele>
        <time>2016-12-04T09:08:58.316Z</time>
      </trkpt>
      <trkpt lat="47.52968" lon="-1.39705">
        <ele>106</ele>
        <time>2016-12-04T09:09:18.500Z</time>
      </trkpt>
      <trkpt lat="47.52968" lon="-1.39705">
        <ele>106</ele>
        <time>2016-12-04T09:09:23.454Z</time>
      </trkpt>
      <trkpt lat="47.52966" lon="-1.39724">
        <ele>104</ele>
        <time>2016-12-04T09:09:27.212Z</time>
      </trkpt>
      <trkpt lat="47.52958" lon="-1.39735">
        <ele>103</ele>
        <time>2016-12-04T09:09:34.670Z</time>
      </trkpt>
      <trkpt lat="47.52953" lon="-1.39746">
        <ele>103</ele>
        <time>2016-12-04T09:09:40.266Z</time>
      </trkpt>
      <trkpt lat="47.52951" lon="-1.39759">
        <ele>103</ele>
        <time>2016-12-04T09:09:46.474Z</time>
      </trkpt>
      <trkpt lat="47.52948" lon="-1.39775">
        <ele>103</ele>
        <time>2016-12-04T09:09:54.194Z</time>
      </trkpt>
      <trkpt lat="47.52945" lon="-1.39789">
        <ele>103</ele>
        <time>2016-12-04T09:10:00.331Z</time>
      </trkpt>
      <trkpt lat="47.52941" lon="-1.39805">
        <ele>103</ele>
        <time>2016-12-04T09:10:12.449Z</time>
      </trkpt>
      <trkpt lat="47.52939" lon="-1.39818">
        <ele>103</ele>
        <time>2016-12-04T09:10:19.535Z</time>
      </trkpt>
      <trkpt lat="47.52934" lon="-1.3983">
        <ele>102</ele>
        <time>2016-12-04T09:10:28.307Z</time>
      </trkpt>
      <trkpt lat="47.5293" lon="-1.39843">
        <ele>102</ele>
        <time>2016-12-04T09:10:34.327Z</time>
      </trkpt>
      <trkpt lat="47.52925" lon="-1.3986">
        <ele>101</ele>
        <time>2016-12-04T09:10:43.289Z</time>
      </trkpt>
      <trkpt lat="47.52929" lon="-1.39904">
        <ele>98</ele>
        <time>2016-12-04T09:11:03.823Z</time>
      </trkpt>
      <trkpt lat="47.52929" lon="-1.39921">
        <ele>98</ele>
        <time>2016-12-04T09:11:23.701Z</time>
      </trkpt>
      <trkpt lat="47.52933" lon="-1.39953">
        <ele>97</ele>
        <time>2016-12-04T09:11:26.672Z</time>
      </trkpt>
      <trkpt lat="47.5295" lon="-1.39991">
        <ele>98</ele>
        <time>2016-12-04T09:11:46.574Z</time>
      </trkpt>
      <trkpt lat="47.52953" lon="-1.40006">
        <ele>98</ele>
        <time>2016-12-04T09:11:53.436Z</time>
      </trkpt>
      <trkpt lat="47.52942" lon="-1.40024">
        <ele>98</ele>
        <time>2016-12-04T09:12:05.670Z</time>
      </trkpt>
      <trkpt lat="47.52917" lon="-1.40039">
        <ele>97</ele>
        <time>2016-12-04T09:12:25.282Z</time>
      </trkpt>
      <trkpt lat="47.5291" lon="-1.40047">
        <ele>96</ele>
        <time>2016-12-04T09:12:33.191Z</time>
      </trkpt>
      <trkpt lat="47.529" lon="-1.40071">
        <ele>94</ele>
        <time>2016-12-04T09:12:46.937Z</time>
      </trkpt>
      <trkpt lat="47.52897" lon="-1.40112">
        <ele>91</ele>
        <time>2016-12-04T09:13:03.697Z</time>
      </trkpt>
      <trkpt lat="47.52895" lon="-1.40156">
        <ele>88</ele>
        <time>2016-12-04T09:13:24.676Z</time>
      </trkpt>
      <trkpt lat="47.52884" lon="-1.40195">
        <ele>86</ele>
        <time>2016-12-04T09:13:46.639Z</time>
      </trkpt>
      <trkpt lat="47.52872" lon="-1.40227">
        <ele>86</ele>
        <time>2016-12-04T09:14:02.652Z</time>
      </trkpt>
      <trkpt lat="47.52865" lon="-1.40236">
        <ele>86</ele>
        <time>2016-12-04T09:14:09.472Z</time>
      </trkpt>
      <trkpt lat="47.52856" lon="-1.40278">
        <ele>87</ele>
        <time>2016-12-04T09:14:31.438Z</time>
      </trkpt>
      <trkpt lat="47.52862" lon="-1.40321">
        <ele>88</ele>
        <time>2016-12-04T09:14:49.244Z</time>
      </trkpt>
      <trkpt lat="47.52868" lon="-1.4036">
        <ele>89</ele>
        <time>2016-12-04T09:15:09.233Z</time>
      </trkpt>
      <trkpt lat="47.52866" lon="-1.404">
        <ele>90</ele>
        <time>2016-12-04T09:15:27.463Z</time>
      </trkpt>
      <trkpt lat="47.52864" lon="-1.40422">
        <ele>91</ele>
        <time>2016-12-04T09:15:38.436Z</time>
      </trkpt>
      <trkpt lat="47.52868" lon="-1.40463">
        <ele>91</ele>
        <time>2016-12-04T09:15:56.187Z</time>
      </trkpt>
      <trkpt lat="47.52872" lon="-1.40504">
        <ele>92</ele>
        <time>2016-12-04T09:16:18.313Z</time>
      </trkpt>
      <trkpt lat="47.52873" lon="-1.40538">
        <ele>93</ele>
        <time>2016-12-04T09:16:35.459Z</time>
      </trkpt>
      <trkpt lat="47.52875" lon="-1.40581">
        <ele>93</ele>
        <time>2016-12-04T09:16:56.368Z</time>
      </trkpt>
      <trkpt lat="47.52875" lon="-1.40623">
        <ele>92</ele>
        <time>2016-12-04T09:17:15.533Z</time>
      </trkpt>
      <trkpt lat="47.52873" lon="-1.40644">
        <ele>92</ele>
        <time>2016-12-04T09:17:27.675Z</time>
      </trkpt>
      <trkpt lat="47.52865" lon="-1.40686">
        <ele>93</ele>
        <time>2016-12-04T09:17:44.732Z</time>
      </trkpt>
      <trkpt lat="47.52856" lon="-1.40725">
        <ele>94</ele>
        <time>2016-12-04T09:18:05.426Z</time>
      </trkpt>
      <trkpt lat="47.52852" lon="-1.40766">
        <ele>95</ele>
        <time>2016-12-04T09:18:25.456Z</time>
      </trkpt>
      <trkpt lat="47.5285" lon="-1.408">
        <ele>96</ele>
        <time>2016-12-04T09:18:43.606Z</time>
      </trkpt>
      <trkpt lat="47.52856" lon="-1.40841">
        <ele>96</ele>
        <time>2016-12-04T09:19:02.639Z</time>
      </trkpt>
      <trkpt lat="47.5286" lon="-1.40861">
        <ele>96</ele>
        <time>2016-12-04T09:19:12.593Z</time>
      </trkpt>
      <trkpt lat="47.52871" lon="-1.40881">
        <ele>96</ele>
        <time>2016-12-04T09:19:25.677Z</time>
      </trkpt>
      <trkpt lat="47.52872" lon="-1.40896">
        <ele>96</ele>
        <time>2016-12-04T09:19:35.459Z</time>
      </trkpt>
      <trkpt lat="47.52871" lon="-1.40913">
        <ele>97</ele>
        <time>2016-12-04T09:19:50.409Z</time>
      </trkpt>
      <trkpt lat="47.52875" lon="-1.40926">
        <ele>97</ele>
        <time>2016-12-04T09:20:02.322Z</time>
      </trkpt>
      <trkpt lat="47.52884" lon="-1.40965">
        <ele>99</ele>
        <time>2016-12-04T09:20:24.664Z</time>
      </trkpt>
      <trkpt lat="47.52894" lon="-1.41002">
        <ele>101</ele>
        <time>2016-12-04T09:20:47.475Z</time>
      </trkpt>
      <trkpt lat="47.52904" lon="-1.41029">
        <ele>102</ele>
        <time>2016-12-04T09:21:03.467Z</time>
      </trkpt>
      <trkpt lat="47.52911" lon="-1.41069">
        <ele>104</ele>
        <time>2016-12-04T09:21:21.385Z</time>
      </trkpt>
      <trkpt lat="47.52913" lon="-1.41092">
        <ele>105</ele>
        <time>2016-12-04T09:21:33.524Z</time>
      </trkpt>
      <trkpt lat="47.52915" lon="-1.41129">
        <ele>105</ele>
        <time>2016-12-04T09:21:51.560Z</time>
      </trkpt>
      <trkpt lat="47.52921" lon="-1.4114">
        <ele>105</ele>
        <time>2016-12-04T09:21:58.566Z</time>
      </trkpt>
      <trkpt lat="47.52933" lon="-1.41176">
        <ele>105</ele>
        <time>2016-12-04T09:22:19.571Z</time>
      </trkpt>
      <trkpt lat="47.52937" lon="-1.41189">
        <ele>105</ele>
        <time>2016-12-04T09:22:27.449Z</time>
      </trkpt>
      <trkpt lat="47.52948" lon="-1.41215">
        <ele>106</ele>
        <time>2016-12-04T09:22:43.267Z</time>
      </trkpt>
      <trkpt lat="47.52966" lon="-1.4124">
        <ele>108</ele>
        <time>2016-12-04T09:23:00.457Z</time>
      </trkpt>
      <trkpt lat="47.52979" lon="-1.41277">
        <ele>109</ele>
        <time>2016-12-04T09:23:19.271Z</time>
      </trkpt>
      <trkpt lat="47.52991" lon="-1.41301">
        <ele>111</ele>
        <time>2016-12-04T09:23:34.460Z</time>
      </trkpt>
      <trkpt lat="47.52999" lon="-1.41339">
        <ele>114</ele>
        <time>2016-12-04T09:23:52.569Z</time>
      </trkpt>
      <trkpt lat="47.5301" lon="-1.41374">
        <ele>114</ele>
        <time>2016-12-04T09:24:10.595Z</time>
      </trkpt>
      <trkpt lat="47.53019" lon="-1.41403">
        <ele>113</ele>
        <time>2016-12-04T09:24:24.447Z</time>
      </trkpt>
      <trkpt lat="47.5303" lon="-1.41418">
        <ele>112</ele>
        <time>2016-12-04T09:24:35.615Z</time>
      </trkpt>
      <trkpt lat="47.53038" lon="-1.4146">
        <ele>111</ele>
        <time>2016-12-04T09:24:55.475Z</time>
      </trkpt>
      <trkpt lat="47.53053" lon="-1.41495">
        <ele>111</ele>
        <time>2016-12-04T09:25:16.577Z</time>
      </trkpt>
      <trkpt lat="47.53053" lon="-1.41509">
        <ele>111</ele>
        <time>2016-12-04T09:25:35.555Z</time>
      </trkpt>
      <trkpt lat="47.53037" lon="-1.41516">
        <ele>110</ele>
        <time>2016-12-04T09:25:53.217Z</time>
      </trkpt>
      <trkpt lat="47.53012" lon="-1.41535">
        <ele>108</ele>
        <time>2016-12-04T09:26:17.194Z</time>
      </trkpt>
      <trkpt lat="47.52999" lon="-1.41537">
        <ele>107</ele>
        <time>2016-12-04T09:26:27.540Z</time>
      </trkpt>
      <trkpt lat="47.52972" lon="-1.4155">
        <ele>106</ele>
        <time>2016-12-04T09:26:47.453Z</time>
      </trkpt>
      <trkpt lat="47.52959" lon="-1.41555">
        <ele>106</ele>
        <time>2016-12-04T09:26:57.436Z</time>
      </trkpt>
      <trkpt lat="47.52932" lon="-1.41564">
        <ele>105</ele>
        <time>2016-12-04T09:27:13.652Z</time>
      </trkpt>
      <trkpt lat="47.5292" lon="-1.41569">
        <ele>105</ele>
        <time>2016-12-04T09:27:25.207Z</time>
      </trkpt>
      <trkpt lat="47.52907" lon="-1.41577">
        <ele>105</ele>
        <time>2016-12-04T09:27:33.604Z</time>
      </trkpt>
      <trkpt lat="47.52879" lon="-1.41585">
        <ele>104</ele>
        <time>2016-12-04T09:27:52.476Z</time>
      </trkpt>
      <trkpt lat="47.52859" lon="-1.41594">
        <ele>104</ele>
        <time>2016-12-04T09:28:08.429Z</time>
      </trkpt>
      <trkpt lat="47.52833" lon="-1.41611">
        <ele>104</ele>
        <time>2016-12-04T09:28:27.476Z</time>
      </trkpt>
      <trkpt lat="47.52806" lon="-1.41615">
        <ele>104</ele>
        <time>2016-12-04T09:28:43.708Z</time>
      </trkpt>
      <trkpt lat="47.5278" lon="-1.41627">
        <ele>103</ele>
        <time>2016-12-04T09:29:00.519Z</time>
      </trkpt>
      <trkpt lat="47.52768" lon="-1.41637">
        <ele>102</ele>
        <time>2016-12-04T09:29:10.438Z</time>
      </trkpt>
      <trkpt lat="47.52739" lon="-1.41647">
        <ele>100</ele>
        <time>2016-12-04T09:29:30.574Z</time>
      </trkpt>
      <trkpt lat="47.52712" lon="-1.41658">
        <ele>97</ele>
        <time>2016-12-04T09:29:48.485Z</time>
      </trkpt>
      <trkpt lat="47.52698" lon="-1.41661">
        <ele>95</ele>
        <time>2016-12-04T09:29:57.510Z</time>
      </trkpt>
      <trkpt lat="47.52688" lon="-1.41682">
        <ele>91</ele>
        <time>2016-12-04T09:30:08.527Z</time>
      </trkpt>
      <trkpt lat="47.52694" lon="-1.41652">
        <ele>84</ele>
        <time>2016-12-04T09:30:28.619Z</time>
      </trkpt>
      <trkpt lat="47.52686" lon="-1.41624">
        <ele>81</ele>
        <time>2016-12-04T09:30:44.430Z</time>
      </trkpt>
      <trkpt lat="47.52676" lon="-1.41616">
        <ele>80</ele>
        <time>2016-12-04T09:30:54.205Z</time>
      </trkpt>
      <trkpt lat="47.52683" lon="-1.41607">
        <ele>80</ele>
        <time>2016-12-04T09:31:16.195Z</time>
      </trkpt>
      <trkpt lat="47.52683" lon="-1.41607">
        <ele>80</ele>
        <time>2016-12-04T09:31:34.664Z</time>
      </trkpt>
      <trkpt lat="47.52683" lon="-1.41607">
        <ele>80</ele>
        <time>2016-12-04T09:32:13.680Z</time>
      </trkpt>
      <trkpt lat="47.52678" lon="-1.41596">
        <ele>81</ele>
        <time>2016-12-04T09:32:28.380Z</time>
      </trkpt>
      <trkpt lat="47.52678" lon="-1.41581">
        <ele>81</ele>
        <time>2016-12-04T09:32:37.592Z</time>
      </trkpt>
      <trkpt lat="47.52677" lon="-1.41567">
        <ele>80</ele>
        <time>2016-12-04T09:32:47.593Z</time>
      </trkpt>
      <trkpt lat="47.52677" lon="-1.41567">
        <ele>80</ele>
        <time>2016-12-04T09:33:07.452Z</time>
      </trkpt>
      <trkpt lat="47.52677" lon="-1.41567">
        <ele>80</ele>
        <time>2016-12-04T09:37:29.392Z</time>
      </trkpt>
      <trkpt lat="47.52671" lon="-1.41554">
        <ele>79</ele>
        <time>2016-12-04T09:37:29.392Z</time>
      </trkpt>
      <trkpt lat="47.52671" lon="-1.41554">
        <ele>79</ele>
        <time>2016-12-04T09:37:43.278Z</time>
      </trkpt>
      <trkpt lat="47.52671" lon="-1.41554">
        <ele>79</ele>
        <time>2016-12-04T09:40:18.400Z</time>
      </trkpt>
      <trkpt lat="47.52671" lon="-1.41554">
        <ele>79</ele>
        <time>2016-12-04T09:40:31.481Z</time>
      </trkpt>
      <trkpt lat="47.52671" lon="-1.41554">
        <ele>79</ele>
        <time>2016-12-04T09:43:55.297Z</time>
      </trkpt>
      <trkpt lat="47.52671" lon="-1.41554">
        <ele>79</ele>
        <time>2016-12-04T09:43:57.279Z</time>
      </trkpt>
      <trkpt lat="47.52671" lon="-1.41554">
        <ele>79</ele>
        <time>2016-12-04T09:44:00.332Z</time>
      </trkpt>
      <trkpt lat="47.52671" lon="-1.41541">
        <ele>79</ele>
        <time>2016-12-04T09:44:14.717Z</time>
      </trkpt>
      <trkpt lat="47.52673" lon="-1.41527">
        <ele>79</ele>
        <time>2016-12-04T09:44:20.697Z</time>
      </trkpt>
      <trkpt lat="47.52674" lon="-1.41513">
        <ele>79</ele>
        <time>2016-12-04T09:44:27.621Z</time>
      </trkpt>
      <trkpt lat="47.52674" lon="-1.41499">
        <ele>79</ele>
        <time>2016-12-04T09:44:35.385Z</time>
      </trkpt>
      <trkpt lat="47.52676" lon="-1.41484">
        <ele>79</ele>
        <time>2016-12-04T09:44:43.520Z</time>
      </trkpt>
      <trkpt lat="47.52679" lon="-1.41471">
        <ele>79</ele>
        <time>2016-12-04T09:44:51.293Z</time>
      </trkpt>
      <trkpt lat="47.52681" lon="-1.41456">
        <ele>78</ele>
        <time>2016-12-04T09:44:58.675Z</time>
      </trkpt>
      <trkpt lat="47.52684" lon="-1.41443">
        <ele>78</ele>
        <time>2016-12-04T09:45:06.473Z</time>
      </trkpt>
      <trkpt lat="47.52684" lon="-1.41428">
        <ele>77</ele>
        <time>2016-12-04T09:45:14.733Z</time>
      </trkpt>
      <trkpt lat="47.52685" lon="-1.41414">
        <ele>77</ele>
        <time>2016-12-04T09:45:21.494Z</time>
      </trkpt>
      <trkpt lat="47.52684" lon="-1.41372">
        <ele>76</ele>
        <time>2016-12-04T09:45:42.496Z</time>
      </trkpt>
      <trkpt lat="47.52688" lon="-1.41332">
        <ele>77</ele>
        <time>2016-12-04T09:46:01.582Z</time>
      </trkpt>
      <trkpt lat="47.52688" lon="-1.41295">
        <ele>77</ele>
        <time>2016-12-04T09:46:19.395Z</time>
      </trkpt>
      <trkpt lat="47.52693" lon="-1.41256">
        <ele>77</ele>
        <time>2016-12-04T09:46:38.533Z</time>
      </trkpt>
      <trkpt lat="47.52692" lon="-1.41225">
        <ele>76</ele>
        <time>2016-12-04T09:46:53.419Z</time>
      </trkpt>
      <trkpt lat="47.52688" lon="-1.41188">
        <ele>77</ele>
        <time>2016-12-04T09:47:13.548Z</time>
      </trkpt>
      <trkpt lat="47.52685" lon="-1.4116">
        <ele>78</ele>
        <time>2016-12-04T09:47:25.275Z</time>
      </trkpt>
      <trkpt lat="47.52669" lon="-1.41125">
        <ele>80</ele>
        <time>2016-12-04T09:47:42.290Z</time>
      </trkpt>
      <trkpt lat="47.5265" lon="-1.41096">
        <ele>81</ele>
        <time>2016-12-04T09:48:02.375Z</time>
      </trkpt>
      <trkpt lat="47.5265" lon="-1.41096">
        <ele>81</ele>
        <time>2016-12-04T09:48:11.629Z</time>
      </trkpt>
      <trkpt lat="47.5265" lon="-1.41096">
        <ele>81</ele>
        <time>2016-12-04T09:48:14.535Z</time>
      </trkpt>
      <trkpt lat="47.52644" lon="-1.41085">
        <ele>82</ele>
        <time>2016-12-04T09:48:20.759Z</time>
      </trkpt>
      <trkpt lat="47.52641" lon="-1.41072">
        <ele>82</ele>
        <time>2016-12-04T09:48:27.535Z</time>
      </trkpt>
      <trkpt lat="47.52637" lon="-1.41057">
        <ele>82</ele>
        <time>2016-12-04T09:48:35.431Z</time>
      </trkpt>
      <trkpt lat="47.52634" lon="-1.41042">
        <ele>82</ele>
        <time>2016-12-04T09:48:43.470Z</time>
      </trkpt>
      <trkpt lat="47.52632" lon="-1.41027">
        <ele>82</ele>
        <time>2016-12-04T09:48:50.211Z</time>
      </trkpt>
      <trkpt lat="47.52629" lon="-1.41014">
        <ele>82</ele>
        <time>2016-12-04T09:48:58.571Z</time>
      </trkpt>
      <trkpt lat="47.52625" lon="-1.41001">
        <ele>81</ele>
        <time>2016-12-04T09:49:06.554Z</time>
      </trkpt>
      <trkpt lat="47.52619" lon="-1.40986">
        <ele>81</ele>
        <time>2016-12-04T09:49:15.477Z</time>
      </trkpt>
      <trkpt lat="47.52614" lon="-1.40974">
        <ele>81</ele>
        <time>2016-12-04T09:49:22.779Z</time>
      </trkpt>
      <trkpt lat="47.52611" lon="-1.40961">
        <ele>81</ele>
        <time>2016-12-04T09:49:29.499Z</time>
      </trkpt>
      <trkpt lat="47.52611" lon="-1.40917">
        <ele>82</ele>
        <time>2016-12-04T09:49:52.350Z</time>
      </trkpt>
      <trkpt lat="47.52611" lon="-1.40904">
        <ele>82</ele>
        <time>2016-12-04T09:49:59.213Z</time>
      </trkpt>
      <trkpt lat="47.52617" lon="-1.40876">
        <ele>82</ele>
        <time>2016-12-04T09:50:16.298Z</time>
      </trkpt>
      <trkpt lat="47.52615" lon="-1.40841">
        <ele>81</ele>
        <time>2016-12-04T09:50:43.487Z</time>
      </trkpt>
      <trkpt lat="47.52615" lon="-1.40841">
        <ele>81</ele>
        <time>2016-12-04T09:50:52.510Z</time>
      </trkpt>
      <trkpt lat="47.52615" lon="-1.40841">
        <ele>81</ele>
        <time>2016-12-04T09:51:00.711Z</time>
      </trkpt>
      <trkpt lat="47.52615" lon="-1.40828">
        <ele>81</ele>
        <time>2016-12-04T09:51:04.439Z</time>
      </trkpt>
      <trkpt lat="47.52613" lon="-1.40813">
        <ele>81</ele>
        <time>2016-12-04T09:51:14.327Z</time>
      </trkpt>
      <trkpt lat="47.52615" lon="-1.40796">
        <ele>81</ele>
        <time>2016-12-04T09:51:21.388Z</time>
      </trkpt>
      <trkpt lat="47.52619" lon="-1.40782">
        <ele>81</ele>
        <time>2016-12-04T09:51:29.286Z</time>
      </trkpt>
      <trkpt lat="47.52622" lon="-1.40769">
        <ele>81</ele>
        <time>2016-12-04T09:51:35.401Z</time>
      </trkpt>
      <trkpt lat="47.52629" lon="-1.40757">
        <ele>80</ele>
        <time>2016-12-04T09:51:43.698Z</time>
      </trkpt>
      <trkpt lat="47.52627" lon="-1.40743">
        <ele>79</ele>
        <time>2016-12-04T09:51:52.623Z</time>
      </trkpt>
      <trkpt lat="47.52625" lon="-1.40725">
        <ele>79</ele>
        <time>2016-12-04T09:52:01.424Z</time>
      </trkpt>
      <trkpt lat="47.52624" lon="-1.40712">
        <ele>79</ele>
        <time>2016-12-04T09:52:08.593Z</time>
      </trkpt>
      <trkpt lat="47.52618" lon="-1.40701">
        <ele>79</ele>
        <time>2016-12-04T09:52:15.700Z</time>
      </trkpt>
      <trkpt lat="47.52598" lon="-1.40674">
        <ele>79</ele>
        <time>2016-12-04T09:52:36.871Z</time>
      </trkpt>
      <trkpt lat="47.52585" lon="-1.40655">
        <ele>79</ele>
        <time>2016-12-04T09:52:50.449Z</time>
      </trkpt>
      <trkpt lat="47.52571" lon="-1.4064">
        <ele>78</ele>
        <time>2016-12-04T09:53:04.463Z</time>
      </trkpt>
      <trkpt lat="47.52567" lon="-1.40619">
        <ele>77</ele>
        <time>2016-12-04T09:53:16.307Z</time>
      </trkpt>
      <trkpt lat="47.5257" lon="-1.40599">
        <ele>77</ele>
        <time>2016-12-04T09:53:25.535Z</time>
      </trkpt>
      <trkpt lat="47.5258" lon="-1.40574">
        <ele>75</ele>
        <time>2016-12-04T09:53:41.637Z</time>
      </trkpt>
      <trkpt lat="47.52576" lon="-1.40555">
        <ele>74</ele>
        <time>2016-12-04T09:53:52.344Z</time>
      </trkpt>
      <trkpt lat="47.52554" lon="-1.4055">
        <ele>72</ele>
        <time>2016-12-04T09:54:12.532Z</time>
      </trkpt>
      <trkpt lat="47.52539" lon="-1.40543">
        <ele>72</ele>
        <time>2016-12-04T09:54:22.351Z</time>
      </trkpt>
      <trkpt lat="47.52531" lon="-1.40537">
        <ele>73</ele>
        <time>2016-12-04T09:54:29.604Z</time>
      </trkpt>
      <trkpt lat="47.52518" lon="-1.40501">
        <ele>74</ele>
        <time>2016-12-04T09:54:48.710Z</time>
      </trkpt>
      <trkpt lat="47.52504" lon="-1.40474">
        <ele>75</ele>
        <time>2016-12-04T09:55:06.636Z</time>
      </trkpt>
      <trkpt lat="47.525" lon="-1.40461">
        <ele>75</ele>
        <time>2016-12-04T09:55:13.490Z</time>
      </trkpt>
      <trkpt lat="47.52497" lon="-1.40442">
        <ele>76</ele>
        <time>2016-12-04T09:55:26.373Z</time>
      </trkpt>
      <trkpt lat="47.52486" lon="-1.40426">
        <ele>75</ele>
        <time>2016-12-04T09:55:36.487Z</time>
      </trkpt>
      <trkpt lat="47.52479" lon="-1.40402">
        <ele>75</ele>
        <time>2016-12-04T09:55:46.291Z</time>
      </trkpt>
      <trkpt lat="47.52473" lon="-1.40363">
        <ele>77</ele>
        <time>2016-12-04T09:56:04.402Z</time>
      </trkpt>
      <trkpt lat="47.52469" lon="-1.40323">
        <ele>79</ele>
        <time>2016-12-04T09:56:23.424Z</time>
      </trkpt>
      <trkpt lat="47.52466" lon="-1.40282">
        <ele>81</ele>
        <time>2016-12-04T09:56:43.384Z</time>
      </trkpt>
      <trkpt lat="47.52461" lon="-1.40242">
        <ele>81</ele>
        <time>2016-12-04T09:57:05.623Z</time>
      </trkpt>
      <trkpt lat="47.52456" lon="-1.40201">
        <ele>80</ele>
        <time>2016-12-04T09:57:26.510Z</time>
      </trkpt>
      <trkpt lat="47.52454" lon="-1.40161">
        <ele>80</ele>
        <time>2016-12-04T09:57:48.581Z</time>
      </trkpt>
      <trkpt lat="47.52448" lon="-1.4012">
        <ele>80</ele>
        <time>2016-12-04T09:58:10.296Z</time>
      </trkpt>
      <trkpt lat="47.52439" lon="-1.40078">
        <ele>80</ele>
        <time>2016-12-04T09:58:30.218Z</time>
      </trkpt>
      <trkpt lat="47.52422" lon="-1.40045">
        <ele>81</ele>
        <time>2016-12-04T09:58:50.460Z</time>
      </trkpt>
      <trkpt lat="47.524" lon="-1.40022">
        <ele>80</ele>
        <time>2016-12-04T09:59:10.420Z</time>
      </trkpt>
      <trkpt lat="47.52378" lon="-1.39996">
        <ele>78</ele>
        <time>2016-12-04T09:59:30.545Z</time>
      </trkpt>
      <trkpt lat="47.52353" lon="-1.39974">
        <ele>75</ele>
        <time>2016-12-04T09:59:52.337Z</time>
      </trkpt>
      <trkpt lat="47.52345" lon="-1.39961">
        <ele>75</ele>
        <time>2016-12-04T10:00:01.274Z</time>
      </trkpt>
      <trkpt lat="47.52335" lon="-1.39922">
        <ele>74</ele>
        <time>2016-12-04T10:00:22.399Z</time>
      </trkpt>
      <trkpt lat="47.52326" lon="-1.39882">
        <ele>76</ele>
        <time>2016-12-04T10:00:45.469Z</time>
      </trkpt>
      <trkpt lat="47.52324" lon="-1.39841">
        <ele>78</ele>
        <time>2016-12-04T10:01:06.837Z</time>
      </trkpt>
      <trkpt lat="47.52329" lon="-1.398">
        <ele>79</ele>
        <time>2016-12-04T10:01:28.213Z</time>
      </trkpt>
      <trkpt lat="47.52335" lon="-1.39761">
        <ele>80</ele>
        <time>2016-12-04T10:01:49.480Z</time>
      </trkpt>
      <trkpt lat="47.52335" lon="-1.39719">
        <ele>79</ele>
        <time>2016-12-04T10:02:10.485Z</time>
      </trkpt>
      <trkpt lat="47.52339" lon="-1.39681">
        <ele>77</ele>
        <time>2016-12-04T10:02:31.294Z</time>
      </trkpt>
      <trkpt lat="47.52349" lon="-1.39667">
        <ele>75</ele>
        <time>2016-12-04T10:02:43.263Z</time>
      </trkpt>
      <trkpt lat="47.52364" lon="-1.39659">
        <ele>75</ele>
        <time>2016-12-04T10:02:57.584Z</time>
      </trkpt>
      <trkpt lat="47.52371" lon="-1.39644">
        <ele>75</ele>
        <time>2016-12-04T10:03:08.269Z</time>
      </trkpt>
      <trkpt lat="47.52375" lon="-1.39617">
        <ele>75</ele>
        <time>2016-12-04T10:03:21.568Z</time>
      </trkpt>
      <trkpt lat="47.52349" lon="-1.39606">
        <ele>77</ele>
        <time>2016-12-04T10:03:43.620Z</time>
      </trkpt>
      <trkpt lat="47.52322" lon="-1.39599">
        <ele>78</ele>
        <time>2016-12-04T10:04:04.718Z</time>
      </trkpt>
      <trkpt lat="47.52293" lon="-1.39598">
        <ele>78</ele>
        <time>2016-12-04T10:04:27.562Z</time>
      </trkpt>
      <trkpt lat="47.52266" lon="-1.396">
        <ele>77</ele>
        <time>2016-12-04T10:04:45.514Z</time>
      </trkpt>
      <trkpt lat="47.52253" lon="-1.3961">
        <ele>77</ele>
        <time>2016-12-04T10:05:05.438Z</time>
      </trkpt>
      <trkpt lat="47.52253" lon="-1.3961">
        <ele>77</ele>
        <time>2016-12-04T10:05:07.623Z</time>
      </trkpt>
      <trkpt lat="47.52253" lon="-1.3961">
        <ele>77</ele>
        <time>2016-12-04T10:06:30.281Z</time>
      </trkpt>
      <trkpt lat="47.52253" lon="-1.3961">
        <ele>77</ele>
        <time>2016-12-04T10:06:34.472Z</time>
      </trkpt>
      <trkpt lat="47.52253" lon="-1.3961">
        <ele>77</ele>
        <time>2016-12-04T10:06:38.457Z</time>
      </trkpt>
      <trkpt lat="47.5225" lon="-1.39596">
        <ele>78</ele>
        <time>2016-12-04T10:06:43.585Z</time>
      </trkpt>
      <trkpt lat="47.5226" lon="-1.39591">
        <ele>78</ele>
        <time>2016-12-04T10:06:50.281Z</time>
      </trkpt>
      <trkpt lat="47.5227" lon="-1.3959">
        <ele>79</ele>
        <time>2016-12-04T10:06:59.456Z</time>
      </trkpt>
      <trkpt lat="47.5228" lon="-1.39587">
        <ele>79</ele>
        <time>2016-12-04T10:07:06.652Z</time>
      </trkpt>
      <trkpt lat="47.5229" lon="-1.39586">
        <ele>80</ele>
        <time>2016-12-04T10:07:14.427Z</time>
      </trkpt>
      <trkpt lat="47.523" lon="-1.39588">
        <ele>80</ele>
        <time>2016-12-04T10:07:23.574Z</time>
      </trkpt>
      <trkpt lat="47.523" lon="-1.39588">
        <ele>80</ele>
        <time>2016-12-04T10:07:40.453Z</time>
      </trkpt>
      <trkpt lat="47.523" lon="-1.39588">
        <ele>80</ele>
        <time>2016-12-04T10:07:50.399Z</time>
      </trkpt>
      <trkpt lat="47.52309" lon="-1.39586">
        <ele>81</ele>
        <time>2016-12-04T10:07:50.399Z</time>
      </trkpt>
      <trkpt lat="47.52314" lon="-1.39575">
        <ele>81</ele>
        <time>2016-12-04T10:08:01.536Z</time>
      </trkpt>
      <trkpt lat="47.52315" lon="-1.39561">
        <ele>80</ele>
        <time>2016-12-04T10:08:11.534Z</time>
      </trkpt>
      <trkpt lat="47.52318" lon="-1.39547">
        <ele>80</ele>
        <time>2016-12-04T10:08:20.594Z</time>
      </trkpt>
      <trkpt lat="47.5232" lon="-1.39533">
        <ele>79</ele>
        <time>2016-12-04T10:08:28.376Z</time>
      </trkpt>
      <trkpt lat="47.52322" lon="-1.39517">
        <ele>79</ele>
        <time>2016-12-04T10:08:36.592Z</time>
      </trkpt>
      <trkpt lat="47.52324" lon="-1.39503">
        <ele>78</ele>
        <time>2016-12-04T10:08:43.778Z</time>
      </trkpt>
      <trkpt lat="47.52326" lon="-1.39489">
        <ele>78</ele>
        <time>2016-12-04T10:08:51.685Z</time>
      </trkpt>
      <trkpt lat="47.52326" lon="-1.39475">
        <ele>78</ele>
        <time>2016-12-04T10:08:59.694Z</time>
      </trkpt>
      <trkpt lat="47.52328" lon="-1.39461">
        <ele>78</ele>
        <time>2016-12-04T10:09:08.635Z</time>
      </trkpt>
      <trkpt lat="47.52329" lon="-1.39448">
        <ele>78</ele>
        <time>2016-12-04T10:09:16.350Z</time>
      </trkpt>
      <trkpt lat="47.52335" lon="-1.39409">
        <ele>77</ele>
        <time>2016-12-04T10:09:37.477Z</time>
      </trkpt>
      <trkpt lat="47.5234" lon="-1.39368">
        <ele>77</ele>
        <time>2016-12-04T10:09:59.715Z</time>
      </trkpt>
      <trkpt lat="47.52345" lon="-1.39328">
        <ele>78</ele>
        <time>2016-12-04T10:10:23.599Z</time>
      </trkpt>
      <trkpt lat="47.52358" lon="-1.39299">
        <ele>79</ele>
        <time>2016-12-04T10:10:41.470Z</time>
      </trkpt>
      <trkpt lat="47.52381" lon="-1.39275">
        <ele>78</ele>
        <time>2016-12-04T10:11:03.432Z</time>
      </trkpt>
      <trkpt lat="47.52404" lon="-1.39253">
        <ele>76</ele>
        <time>2016-12-04T10:11:29.377Z</time>
      </trkpt>
      <trkpt lat="47.52428" lon="-1.39233">
        <ele>76</ele>
        <time>2016-12-04T10:11:48.395Z</time>
      </trkpt>
      <trkpt lat="47.52451" lon="-1.39211">
        <ele>78</ele>
        <time>2016-12-04T10:12:10.484Z</time>
      </trkpt>
      <trkpt lat="47.52469" lon="-1.39179">
        <ele>78</ele>
        <time>2016-12-04T10:12:34.454Z</time>
      </trkpt>
      <trkpt lat="47.52481" lon="-1.39141">
        <ele>77</ele>
        <time>2016-12-04T10:12:56.418Z</time>
      </trkpt>
      <trkpt lat="47.52483" lon="-1.39128">
        <ele>77</ele>
        <time>2016-12-04T10:13:03.631Z</time>
      </trkpt>
      <trkpt lat="47.52493" lon="-1.3909">
        <ele>78</ele>
        <time>2016-12-04T10:13:24.540Z</time>
      </trkpt>
      <trkpt lat="47.52498" lon="-1.3906">
        <ele>81</ele>
        <time>2016-12-04T10:13:45.449Z</time>
      </trkpt>
      <trkpt lat="47.52504" lon="-1.39021">
        <ele>83</ele>
        <time>2016-12-04T10:14:03.843Z</time>
      </trkpt>
      <trkpt lat="47.52506" lon="-1.39002">
        <ele>84</ele>
        <time>2016-12-04T10:14:12.444Z</time>
      </trkpt>
      <trkpt lat="47.52513" lon="-1.38963">
        <ele>88</ele>
        <time>2016-12-04T10:14:31.489Z</time>
      </trkpt>
      <trkpt lat="47.52522" lon="-1.38925">
        <ele>93</ele>
        <time>2016-12-04T10:14:53.281Z</time>
      </trkpt>
      <trkpt lat="47.52529" lon="-1.38885">
        <ele>94</ele>
        <time>2016-12-04T10:15:13.564Z</time>
      </trkpt>
      <trkpt lat="47.52536" lon="-1.38843">
        <ele>93</ele>
        <time>2016-12-04T10:15:35.569Z</time>
      </trkpt>
      <trkpt lat="47.52539" lon="-1.38829">
        <ele>92</ele>
        <time>2016-12-04T10:15:43.654Z</time>
      </trkpt>
      <trkpt lat="47.52544" lon="-1.3879">
        <ele>92</ele>
        <time>2016-12-04T10:16:05.514Z</time>
      </trkpt>
      <trkpt lat="47.52555" lon="-1.38757">
        <ele>92</ele>
        <time>2016-12-04T10:16:24.764Z</time>
      </trkpt>
      <trkpt lat="47.52576" lon="-1.3873">
        <ele>91</ele>
        <time>2016-12-04T10:16:51.759Z</time>
      </trkpt>
      <trkpt lat="47.52591" lon="-1.38706">
        <ele>91</ele>
        <time>2016-12-04T10:17:05.696Z</time>
      </trkpt>
      <trkpt lat="47.52599" lon="-1.38679">
        <ele>90</ele>
        <time>2016-12-04T10:17:19.572Z</time>
      </trkpt>
      <trkpt lat="47.52603" lon="-1.38665">
        <ele>89</ele>
        <time>2016-12-04T10:17:29.774Z</time>
      </trkpt>
      <trkpt lat="47.52604" lon="-1.38649">
        <ele>89</ele>
        <time>2016-12-04T10:17:39.734Z</time>
      </trkpt>
      <trkpt lat="47.52599" lon="-1.38624">
        <ele>88</ele>
        <time>2016-12-04T10:17:51.585Z</time>
      </trkpt>
      <trkpt lat="47.52584" lon="-1.38607">
        <ele>88</ele>
        <time>2016-12-04T10:18:01.423Z</time>
      </trkpt>
      <trkpt lat="47.52574" lon="-1.38603">
        <ele>87</ele>
        <time>2016-12-04T10:18:13.516Z</time>
      </trkpt>
      <trkpt lat="47.52547" lon="-1.38596">
        <ele>84</ele>
        <time>2016-12-04T10:18:32.768Z</time>
      </trkpt>
      <trkpt lat="47.52529" lon="-1.38586">
        <ele>83</ele>
        <time>2016-12-04T10:18:47.218Z</time>
      </trkpt>
      <trkpt lat="47.52502" lon="-1.38568">
        <ele>83</ele>
        <time>2016-12-04T10:19:10.657Z</time>
      </trkpt>
      <trkpt lat="47.52478" lon="-1.38545">
        <ele>84</ele>
        <time>2016-12-04T10:19:26.540Z</time>
      </trkpt>
      <trkpt lat="47.52461" lon="-1.38514">
        <ele>85</ele>
        <time>2016-12-04T10:19:44.611Z</time>
      </trkpt>
      <trkpt lat="47.52453" lon="-1.38492">
        <ele>85</ele>
        <time>2016-12-04T10:20:01.246Z</time>
      </trkpt>
      <trkpt lat="47.52448" lon="-1.3845">
        <ele>87</ele>
        <time>2016-12-04T10:20:22.240Z</time>
      </trkpt>
      <trkpt lat="47.52446" lon="-1.38406">
        <ele>90</ele>
        <time>2016-12-04T10:20:42.239Z</time>
      </trkpt>
      <trkpt lat="47.52439" lon="-1.38365">
        <ele>92</ele>
        <time>2016-12-04T10:21:08.230Z</time>
      </trkpt>
      <trkpt lat="47.5244" lon="-1.38323">
        <ele>92</ele>
        <time>2016-12-04T10:21:26.308Z</time>
      </trkpt>
      <trkpt lat="47.52438" lon="-1.3828">
        <ele>92</ele>
        <time>2016-12-04T10:21:49.311Z</time>
      </trkpt>
      <trkpt lat="47.52436" lon="-1.38239">
        <ele>93</ele>
        <time>2016-12-04T10:22:08.316Z</time>
      </trkpt>
      <trkpt lat="47.52437" lon="-1.38216">
        <ele>93</ele>
        <time>2016-12-04T10:22:19.582Z</time>
      </trkpt>
      <trkpt lat="47.52451" lon="-1.38206">
        <ele>92</ele>
        <time>2016-12-04T10:22:35.553Z</time>
      </trkpt>
      <trkpt lat="47.52454" lon="-1.38165">
        <ele>90</ele>
        <time>2016-12-04T10:22:55.305Z</time>
      </trkpt>
      <trkpt lat="47.52455" lon="-1.38124">
        <ele>89</ele>
        <time>2016-12-04T10:23:16.560Z</time>
      </trkpt>
      <trkpt lat="47.52456" lon="-1.38086">
        <ele>91</ele>
        <time>2016-12-04T10:23:38.453Z</time>
      </trkpt>
      <trkpt lat="47.52455" lon="-1.38044">
        <ele>94</ele>
        <time>2016-12-04T10:23:59.527Z</time>
      </trkpt>
      <trkpt lat="47.52454" lon="-1.38001">
        <ele>94</ele>
        <time>2016-12-04T10:24:20.528Z</time>
      </trkpt>
      <trkpt lat="47.52454" lon="-1.3796">
        <ele>93</ele>
        <time>2016-12-04T10:24:43.421Z</time>
      </trkpt>
      <trkpt lat="47.52451" lon="-1.37918">
        <ele>92</ele>
        <time>2016-12-04T10:25:04.597Z</time>
      </trkpt>
      <trkpt lat="47.52451" lon="-1.37877">
        <ele>90</ele>
        <time>2016-12-04T10:25:26.483Z</time>
      </trkpt>
      <trkpt lat="47.52448" lon="-1.37835">
        <ele>90</ele>
        <time>2016-12-04T10:25:44.515Z</time>
      </trkpt>
      <trkpt lat="47.52445" lon="-1.37794">
        <ele>91</ele>
        <time>2016-12-04T10:26:05.574Z</time>
      </trkpt>
      <trkpt lat="47.52445" lon="-1.37753">
        <ele>90</ele>
        <time>2016-12-04T10:26:26.855Z</time>
      </trkpt>
      <trkpt lat="47.52444" lon="-1.37723">
        <ele>89</ele>
        <time>2016-12-04T10:26:41.237Z</time>
      </trkpt>
      <trkpt lat="47.52436" lon="-1.37714">
        <ele>88</ele>
        <time>2016-12-04T10:26:59.570Z</time>
      </trkpt>
      <trkpt lat="47.52426" lon="-1.37717">
        <ele>88</ele>
        <time>2016-12-04T10:27:09.400Z</time>
      </trkpt>
      <trkpt lat="47.52423" lon="-1.37677">
        <ele>91</ele>
        <time>2016-12-04T10:27:30.498Z</time>
      </trkpt>
      <trkpt lat="47.5242" lon="-1.37636">
        <ele>94</ele>
        <time>2016-12-04T10:27:53.490Z</time>
      </trkpt>
      <trkpt lat="47.52422" lon="-1.37595">
        <ele>92</ele>
        <time>2016-12-04T10:28:13.526Z</time>
      </trkpt>
      <trkpt lat="47.52425" lon="-1.3758">
        <ele>91</ele>
        <time>2016-12-04T10:28:21.500Z</time>
      </trkpt>
      <trkpt lat="47.52417" lon="-1.37571">
        <ele>91</ele>
        <time>2016-12-04T10:28:28.448Z</time>
      </trkpt>
      <trkpt lat="47.52412" lon="-1.37559">
        <ele>89</ele>
        <time>2016-12-04T10:28:38.493Z</time>
      </trkpt>
      <trkpt lat="47.52418" lon="-1.37537">
        <ele>88</ele>
        <time>2016-12-04T10:28:48.686Z</time>
      </trkpt>
      <trkpt lat="47.52417" lon="-1.37523">
        <ele>88</ele>
        <time>2016-12-04T10:28:55.596Z</time>
      </trkpt>
      <trkpt lat="47.5241" lon="-1.37506">
        <ele>89</ele>
        <time>2016-12-04T10:29:06.752Z</time>
      </trkpt>
      <trkpt lat="47.5241" lon="-1.37465">
        <ele>90</ele>
        <time>2016-12-04T10:29:30.720Z</time>
      </trkpt>
      <trkpt lat="47.52403" lon="-1.37425">
        <ele>91</ele>
        <time>2016-12-04T10:29:50.651Z</time>
      </trkpt>
      <trkpt lat="47.52391" lon="-1.37413">
        <ele>90</ele>
        <time>2016-12-04T10:30:02.545Z</time>
      </trkpt>
      <trkpt lat="47.52367" lon="-1.37399">
        <ele>87</ele>
        <time>2016-12-04T10:30:23.774Z</time>
      </trkpt>
      <trkpt lat="47.52355" lon="-1.37396">
        <ele>86</ele>
        <time>2016-12-04T10:30:31.579Z</time>
      </trkpt>
      <trkpt lat="47.5234" lon="-1.37384">
        <ele>85</ele>
        <time>2016-12-04T10:30:41.258Z</time>
      </trkpt>
      <trkpt lat="47.5232" lon="-1.37376">
        <ele>82</ele>
        <time>2016-12-04T10:30:55.804Z</time>
      </trkpt>
      <trkpt lat="47.52308" lon="-1.37375">
        <ele>82</ele>
        <time>2016-12-04T10:31:02.673Z</time>
      </trkpt>
      <trkpt lat="47.52284" lon="-1.37356">
        <ele>80</ele>
        <time>2016-12-04T10:31:20.753Z</time>
      </trkpt>
      <trkpt lat="47.52258" lon="-1.37339">
        <ele>79</ele>
        <time>2016-12-04T10:31:41.319Z</time>
      </trkpt>
      <trkpt lat="47.52232" lon="-1.37328">
        <ele>80</ele>
        <time>2016-12-04T10:32:00.624Z</time>
      </trkpt>
      <trkpt lat="47.52219" lon="-1.37327">
        <ele>81</ele>
        <time>2016-12-04T10:32:10.573Z</time>
      </trkpt>
      <trkpt lat="47.522" lon="-1.37322">
        <ele>81</ele>
        <time>2016-12-04T10:32:24.512Z</time>
      </trkpt>
      <trkpt lat="47.52175" lon="-1.37306">
        <ele>81</ele>
        <time>2016-12-04T10:32:41.486Z</time>
      </trkpt>
      <trkpt lat="47.52166" lon="-1.37306">
        <ele>81</ele>
        <time>2016-12-04T10:32:48.714Z</time>
      </trkpt>
      <trkpt lat="47.52144" lon="-1.37309">
        <ele>80</ele>
        <time>2016-12-04T10:33:05.548Z</time>
      </trkpt>
      <trkpt lat="47.52135" lon="-1.37299">
        <ele>79</ele>
        <time>2016-12-04T10:33:12.714Z</time>
      </trkpt>
      <trkpt lat="47.52121" lon="-1.37291">
        <ele>78</ele>
        <time>2016-12-04T10:33:22.539Z</time>
      </trkpt>
      <trkpt lat="47.52109" lon="-1.37282">
        <ele>76</ele>
        <time>2016-12-04T10:33:32.393Z</time>
      </trkpt>
      <trkpt lat="47.52104" lon="-1.37241">
        <ele>75</ele>
        <time>2016-12-04T10:33:51.237Z</time>
      </trkpt>
      <trkpt lat="47.52101" lon="-1.372">
        <ele>77</ele>
        <time>2016-12-04T10:34:11.710Z</time>
      </trkpt>
      <trkpt lat="47.521" lon="-1.37159">
        <ele>77</ele>
        <time>2016-12-04T10:34:32.309Z</time>
      </trkpt>
      <trkpt lat="47.52103" lon="-1.37129">
        <ele>75</ele>
        <time>2016-12-04T10:34:46.286Z</time>
      </trkpt>
      <trkpt lat="47.52103" lon="-1.37115">
        <ele>73</ele>
        <time>2016-12-04T10:34:53.655Z</time>
      </trkpt>
      <trkpt lat="47.52105" lon="-1.37099">
        <ele>72</ele>
        <time>2016-12-04T10:35:02.549Z</time>
      </trkpt>
      <trkpt lat="47.52104" lon="-1.3708">
        <ele>71</ele>
        <time>2016-12-04T10:35:10.586Z</time>
      </trkpt>
      <trkpt lat="47.52108" lon="-1.37068">
        <ele>70</ele>
        <time>2016-12-04T10:35:18.630Z</time>
      </trkpt>
      <trkpt lat="47.5211" lon="-1.37027">
        <ele>70</ele>
        <time>2016-12-04T10:35:39.372Z</time>
      </trkpt>
      <trkpt lat="47.52123" lon="-1.3699">
        <ele>73</ele>
        <time>2016-12-04T10:36:01.608Z</time>
      </trkpt>
      <trkpt lat="47.5214" lon="-1.3696">
        <ele>75</ele>
        <time>2016-12-04T10:36:24.483Z</time>
      </trkpt>
      <trkpt lat="47.52146" lon="-1.36945">
        <ele>75</ele>
        <time>2016-12-04T10:36:32.245Z</time>
      </trkpt>
      <trkpt lat="47.52149" lon="-1.36908">
        <ele>76</ele>
        <time>2016-12-04T10:36:50.436Z</time>
      </trkpt>
      <trkpt lat="47.52147" lon="-1.36883">
        <ele>77</ele>
        <time>2016-12-04T10:37:12.492Z</time>
      </trkpt>
      <trkpt lat="47.52143" lon="-1.36843">
        <ele>78</ele>
        <time>2016-12-04T10:37:36.357Z</time>
      </trkpt>
      <trkpt lat="47.52143" lon="-1.36819">
        <ele>78</ele>
        <time>2016-12-04T10:37:49.566Z</time>
      </trkpt>
      <trkpt lat="47.52143" lon="-1.36819">
        <ele>78</ele>
        <time>2016-12-04T10:38:14.400Z</time>
      </trkpt>
      <trkpt lat="47.52143" lon="-1.36819">
        <ele>78</ele>
        <time>2016-12-04T10:38:24.366Z</time>
      </trkpt>
      <trkpt lat="47.52139" lon="-1.36796">
        <ele>77</ele>
        <time>2016-12-04T10:38:24.366Z</time>
      </trkpt>
      <trkpt lat="47.52139" lon="-1.36796">
        <ele>77</ele>
        <time>2016-12-04T10:38:42.346Z</time>
      </trkpt>
      <trkpt lat="47.52139" lon="-1.36796">
        <ele>77</ele>
        <time>2016-12-04T10:39:24.692Z</time>
      </trkpt>
      <trkpt lat="47.52137" lon="-1.36781">
        <ele>82</ele>
        <time>2016-12-04T10:39:31.874Z</time>
      </trkpt>
      <trkpt lat="47.52135" lon="-1.36766">
        <ele>81</ele>
        <time>2016-12-04T10:39:37.255Z</time>
      </trkpt>
      <trkpt lat="47.52136" lon="-1.36751">
        <ele>81</ele>
        <time>2016-12-04T10:39:42.333Z</time>
      </trkpt>
      <trkpt lat="47.52136" lon="-1.36735">
        <ele>81</ele>
        <time>2016-12-04T10:39:49.398Z</time>
      </trkpt>
      <trkpt lat="47.52135" lon="-1.36721">
        <ele>81</ele>
        <time>2016-12-04T10:39:54.679Z</time>
      </trkpt>
      <trkpt lat="47.52135" lon="-1.36705">
        <ele>80</ele>
        <time>2016-12-04T10:40:00.388Z</time>
      </trkpt>
      <trkpt lat="47.52135" lon="-1.36692">
        <ele>80</ele>
        <time>2016-12-04T10:40:05.714Z</time>
      </trkpt>
      <trkpt lat="47.52135" lon="-1.36678">
        <ele>79</ele>
        <time>2016-12-04T10:40:11.552Z</time>
      </trkpt>
      <trkpt lat="47.52138" lon="-1.36664">
        <ele>78</ele>
        <time>2016-12-04T10:40:17.479Z</time>
      </trkpt>
      <trkpt lat="47.52142" lon="-1.36652">
        <ele>77</ele>
        <time>2016-12-04T10:40:23.388Z</time>
      </trkpt>
      <trkpt lat="47.52147" lon="-1.36636">
        <ele>76</ele>
        <time>2016-12-04T10:40:33.598Z</time>
      </trkpt>
      <trkpt lat="47.5216" lon="-1.366">
        <ele>75</ele>
        <time>2016-12-04T10:40:54.473Z</time>
      </trkpt>
      <trkpt lat="47.52175" lon="-1.36566">
        <ele>74</ele>
        <time>2016-12-04T10:41:15.290Z</time>
      </trkpt>
      <trkpt lat="47.52186" lon="-1.3654">
        <ele>75</ele>
        <time>2016-12-04T10:41:30.241Z</time>
      </trkpt>
      <trkpt lat="47.52185" lon="-1.36514">
        <ele>76</ele>
        <time>2016-12-04T10:41:42.301Z</time>
      </trkpt>
      <trkpt lat="47.52167" lon="-1.36483">
        <ele>77</ele>
        <time>2016-12-04T10:42:01.519Z</time>
      </trkpt>
      <trkpt lat="47.52154" lon="-1.36447">
        <ele>77</ele>
        <time>2016-12-04T10:42:18.488Z</time>
      </trkpt>
      <trkpt lat="47.52148" lon="-1.36418">
        <ele>77</ele>
        <time>2016-12-04T10:42:35.358Z</time>
      </trkpt>
      <trkpt lat="47.52147" lon="-1.36376">
        <ele>81</ele>
        <time>2016-12-04T10:42:53.282Z</time>
      </trkpt>
      <trkpt lat="47.52143" lon="-1.36336">
        <ele>85</ele>
        <time>2016-12-04T10:43:13.669Z</time>
      </trkpt>
      <trkpt lat="47.52137" lon="-1.36296">
        <ele>86</ele>
        <time>2016-12-04T10:43:31.527Z</time>
      </trkpt>
      <trkpt lat="47.52134" lon="-1.36255">
        <ele>85</ele>
        <time>2016-12-04T10:43:52.518Z</time>
      </trkpt>
      <trkpt lat="47.52139" lon="-1.36213">
        <ele>84</ele>
        <time>2016-12-04T10:44:14.336Z</time>
      </trkpt>
      <trkpt lat="47.52147" lon="-1.36173">
        <ele>85</ele>
        <time>2016-12-04T10:44:35.328Z</time>
      </trkpt>
      <trkpt lat="47.52152" lon="-1.36136">
        <ele>86</ele>
        <time>2016-12-04T10:44:52.611Z</time>
      </trkpt>
      <trkpt lat="47.52153" lon="-1.36116">
        <ele>86</ele>
        <time>2016-12-04T10:45:01.479Z</time>
      </trkpt>
      <trkpt lat="47.52159" lon="-1.36076">
        <ele>85</ele>
        <time>2016-12-04T10:45:21.726Z</time>
      </trkpt>
      <trkpt lat="47.52165" lon="-1.36034">
        <ele>84</ele>
        <time>2016-12-04T10:45:40.698Z</time>
      </trkpt>
      <trkpt lat="47.5217" lon="-1.35994">
        <ele>83</ele>
        <time>2016-12-04T10:46:00.497Z</time>
      </trkpt>
      <trkpt lat="47.52182" lon="-1.35955">
        <ele>82</ele>
        <time>2016-12-04T10:46:21.497Z</time>
      </trkpt>
      <trkpt lat="47.522" lon="-1.35925">
        <ele>84</ele>
        <time>2016-12-04T10:46:43.565Z</time>
      </trkpt>
      <trkpt lat="47.5221" lon="-1.3591">
        <ele>85</ele>
        <time>2016-12-04T10:46:55.691Z</time>
      </trkpt>
      <trkpt lat="47.52233" lon="-1.35888">
        <ele>86</ele>
        <time>2016-12-04T10:47:14.307Z</time>
      </trkpt>
      <trkpt lat="47.52233" lon="-1.35888">
        <ele>86</ele>
        <time>2016-12-04T10:47:27.645Z</time>
      </trkpt>
      <trkpt lat="47.52233" lon="-1.35888">
        <ele>86</ele>
        <time>2016-12-04T10:47:32.726Z</time>
      </trkpt>
      <trkpt lat="47.52233" lon="-1.35888">
        <ele>86</ele>
        <time>2016-12-04T10:47:35.563Z</time>
      </trkpt>
      <trkpt lat="47.52233" lon="-1.35888">
        <ele>86</ele>
        <time>2016-12-04T10:48:08.448Z</time>
      </trkpt>
      <trkpt lat="47.52242" lon="-1.35878">
        <ele>81</ele>
        <time>2016-12-04T10:48:13.590Z</time>
      </trkpt>
      <trkpt lat="47.5225" lon="-1.3587">
        <ele>81</ele>
        <time>2016-12-04T10:48:22.512Z</time>
      </trkpt>
      <trkpt lat="47.52258" lon="-1.35863">
        <ele>82</ele>
        <time>2016-12-04T10:48:29.445Z</time>
      </trkpt>
      <trkpt lat="47.52265" lon="-1.35854">
        <ele>82</ele>
        <time>2016-12-04T10:48:35.485Z</time>
      </trkpt>
      <trkpt lat="47.52272" lon="-1.35844">
        <ele>83</ele>
        <time>2016-12-04T10:48:41.653Z</time>
      </trkpt>
      <trkpt lat="47.52281" lon="-1.35832">
        <ele>83</ele>
        <time>2016-12-04T10:48:48.481Z</time>
      </trkpt>
      <trkpt lat="47.52287" lon="-1.35822">
        <ele>83</ele>
        <time>2016-12-04T10:48:54.252Z</time>
      </trkpt>
      <trkpt lat="47.52293" lon="-1.35808">
        <ele>83</ele>
        <time>2016-12-04T10:49:01.532Z</time>
      </trkpt>
      <trkpt lat="47.52298" lon="-1.35795">
        <ele>84</ele>
        <time>2016-12-04T10:49:08.504Z</time>
      </trkpt>
      <trkpt lat="47.52301" lon="-1.35779">
        <ele>84</ele>
        <time>2016-12-04T10:49:15.571Z</time>
      </trkpt>
      <trkpt lat="47.52308" lon="-1.35738">
        <ele>83</ele>
        <time>2016-12-04T10:49:31.337Z</time>
      </trkpt>
      <trkpt lat="47.52308" lon="-1.35722">
        <ele>83</ele>
        <time>2016-12-04T10:49:39.591Z</time>
      </trkpt>
      <trkpt lat="47.52312" lon="-1.35706">
        <ele>82</ele>
        <time>2016-12-04T10:49:46.509Z</time>
      </trkpt>
      <trkpt lat="47.52308" lon="-1.35687">
        <ele>82</ele>
        <time>2016-12-04T10:49:53.309Z</time>
      </trkpt>
      <trkpt lat="47.52298" lon="-1.35648">
        <ele>81</ele>
        <time>2016-12-04T10:50:13.715Z</time>
      </trkpt>
      <trkpt lat="47.52277" lon="-1.35621">
        <ele>79</ele>
        <time>2016-12-04T10:50:33.330Z</time>
      </trkpt>
      <trkpt lat="47.52265" lon="-1.35607">
        <ele>79</ele>
        <time>2016-12-04T10:50:43.525Z</time>
      </trkpt>
      <trkpt lat="47.52257" lon="-1.35593">
        <ele>79</ele>
        <time>2016-12-04T10:50:51.889Z</time>
      </trkpt>
      <trkpt lat="47.52235" lon="-1.35575">
        <ele>79</ele>
        <time>2016-12-04T10:51:05.500Z</time>
      </trkpt>
      <trkpt lat="47.52217" lon="-1.35553">
        <ele>80</ele>
        <time>2016-12-04T10:51:25.576Z</time>
      </trkpt>
      <trkpt lat="47.52211" lon="-1.35542">
        <ele>81</ele>
        <time>2016-12-04T10:51:32.377Z</time>
      </trkpt>
      <trkpt lat="47.5221" lon="-1.35518">
        <ele>82</ele>
        <time>2016-12-04T10:51:41.588Z</time>
      </trkpt>
      <trkpt lat="47.52213" lon="-1.35505">
        <ele>83</ele>
        <time>2016-12-04T10:51:48.587Z</time>
      </trkpt>
      <trkpt lat="47.52221" lon="-1.35463">
        <ele>85</ele>
        <time>2016-12-04T10:52:10.343Z</time>
      </trkpt>
      <trkpt lat="47.52222" lon="-1.35444">
        <ele>87</ele>
        <time>2016-12-04T10:52:21.455Z</time>
      </trkpt>
      <trkpt lat="47.52235" lon="-1.35407">
        <ele>86</ele>
        <time>2016-12-04T10:52:41.513Z</time>
      </trkpt>
      <trkpt lat="47.52249" lon="-1.35372">
        <ele>86</ele>
        <time>2016-12-04T10:53:03.366Z</time>
      </trkpt>
      <trkpt lat="47.52261" lon="-1.35332">
        <ele>86</ele>
        <time>2016-12-04T10:53:20.703Z</time>
      </trkpt>
      <trkpt lat="47.52273" lon="-1.35294">
        <ele>87</ele>
        <time>2016-12-04T10:53:36.813Z</time>
      </trkpt>
      <trkpt lat="47.52274" lon="-1.35279">
        <ele>87</ele>
        <time>2016-12-04T10:53:43.530Z</time>
      </trkpt>
      <trkpt lat="47.52284" lon="-1.35242">
        <ele>88</ele>
        <time>2016-12-04T10:54:00.304Z</time>
      </trkpt>
      <trkpt lat="47.5229" lon="-1.35203">
        <ele>87</ele>
        <time>2016-12-04T10:54:17.569Z</time>
      </trkpt>
      <trkpt lat="47.52298" lon="-1.35163">
        <ele>85</ele>
        <time>2016-12-04T10:54:34.406Z</time>
      </trkpt>
      <trkpt lat="47.52307" lon="-1.35139">
        <ele>84</ele>
        <time>2016-12-04T10:54:45.355Z</time>
      </trkpt>
      <trkpt lat="47.52307" lon="-1.35125">
        <ele>83</ele>
        <time>2016-12-04T10:54:51.690Z</time>
      </trkpt>
      <trkpt lat="47.52314" lon="-1.35082">
        <ele>79</ele>
        <time>2016-12-04T10:55:11.360Z</time>
      </trkpt>
      <trkpt lat="47.5232" lon="-1.35041">
        <ele>77</ele>
        <time>2016-12-04T10:55:29.656Z</time>
      </trkpt>
      <trkpt lat="47.52325" lon="-1.35">
        <ele>75</ele>
        <time>2016-12-04T10:55:49.569Z</time>
      </trkpt>
      <trkpt lat="47.52332" lon="-1.3496">
        <ele>76</ele>
        <time>2016-12-04T10:56:07.480Z</time>
      </trkpt>
      <trkpt lat="47.52337" lon="-1.3492">
        <ele>78</ele>
        <time>2016-12-04T10:56:26.767Z</time>
      </trkpt>
      <trkpt lat="47.5234" lon="-1.34902">
        <ele>78</ele>
        <time>2016-12-04T10:56:34.550Z</time>
      </trkpt>
      <trkpt lat="47.52353" lon="-1.34865">
        <ele>80</ele>
        <time>2016-12-04T10:56:53.354Z</time>
      </trkpt>
      <trkpt lat="47.52367" lon="-1.34845">
        <ele>80</ele>
        <time>2016-12-04T10:57:07.719Z</time>
      </trkpt>
      <trkpt lat="47.52378" lon="-1.34832">
        <ele>80</ele>
        <time>2016-12-04T10:57:15.544Z</time>
      </trkpt>
      <trkpt lat="47.52396" lon="-1.34821">
        <ele>79</ele>
        <time>2016-12-04T10:57:28.552Z</time>
      </trkpt>
      <trkpt lat="47.52413" lon="-1.34805">
        <ele>78</ele>
        <time>2016-12-04T10:57:43.426Z</time>
      </trkpt>
      <trkpt lat="47.52436" lon="-1.34785">
        <ele>76</ele>
        <time>2016-12-04T10:58:04.740Z</time>
      </trkpt>
      <trkpt lat="47.52458" lon="-1.34761">
        <ele>73</ele>
        <time>2016-12-04T10:58:25.385Z</time>
      </trkpt>
      <trkpt lat="47.5248" lon="-1.34733">
        <ele>70</ele>
        <time>2016-12-04T10:58:44.498Z</time>
      </trkpt>
      <trkpt lat="47.52498" lon="-1.34701">
        <ele>71</ele>
        <time>2016-12-04T10:59:03.548Z</time>
      </trkpt>
      <trkpt lat="47.52508" lon="-1.34688">
        <ele>73</ele>
        <time>2016-12-04T10:59:15.751Z</time>
      </trkpt>
      <trkpt lat="47.52518" lon="-1.34692">
        <ele>75</ele>
        <time>2016-12-04T10:59:25.578Z</time>
      </trkpt>
      <trkpt lat="47.52518" lon="-1.34692">
        <ele>75</ele>
        <time>2016-12-04T10:59:45.333Z</time>
      </trkpt>
      <trkpt lat="47.52518" lon="-1.34692">
        <ele>32</ele>
        <time>2016-12-04T11:00:05.074Z</time>
      </trkpt>
    </trkseg>
  </trk>
</gpx>